Observation data for Palo Duro Canyon State Park Floor on 01/12/2018      Previous  Date  Next       Current Mesonet Observations  Soil Data  Daily Summary Page  Observations in Plain Language
KPD2 120601Z 34002KT M05/M12 A3028 RMK A01 T10511115  RH  061%=      5-min Rain = 0
KPD2 120602Z 33003KT M05/M11 A3028 RMK A01 T10511114  RH  061%=      5-min Rain = 0
KPD2 120603Z 35003KT M05/M11 A3028 RMK A01 T10511114  RH  061%=      5-min Rain = 0
KPD2 120604Z 35003KT M05/M11 A3028 RMK A01 T10511114  RH  061%=      5-min Rain = 0
KPD2 120605Z 35003KT M05/M11 A3028 RMK A01 T10511114  RH  061%=      5-min Rain = 0
KPD2 120606Z 34003KT M05/M11 A3028 RMK A01 T10511114  RH  061%=      5-min Rain = 0
KPD2 120607Z 32003KT M05/M11 A3028 RMK A01 T10511113  RH  062%=      5-min Rain = 0
KPD2 120608Z 33003KT M05/M11 A3028 RMK A01 T10481110  RH  062%=      5-min Rain = 0
KPD2 120609Z 33003KT M05/M11 A3028 RMK A01 T10461108  RH  062%=      5-min Rain = 0
KPD2 120610Z 32003KT M04/M11 A3028 RMK A01 T10441108  RH  061%=      5-min Rain = 0
KPD2 120611Z 34003KT M04/M11 A3028 RMK A01 T10421107  RH  060%=      5-min Rain = 0
KPD2 120612Z 34002KT M04/M11 A3028 RMK A01 T10421109  RH  060%=      5-min Rain = 0
KPD2 120613Z 34002KT M04/M11 A3028 RMK A01 T10421110  RH  059%=      5-min Rain = 0
KPD2 120614Z 33002KT M04/M11 A3028 RMK A01 T10431110  RH  059%=      5-min Rain = 0
KPD2 120615Z 30002KT M04/M11 A3028 RMK A01 T10431110  RH  060%=      5-min Rain = 0
KPD2 120616Z 29002KT M04/M11 A3028 RMK A01 T10421110  RH  059%=      5-min Rain = 0
KPD2 120617Z 29002KT M04/M11 A3028 RMK A01 T10421110  RH  059%=      5-min Rain = 0
KPD2 120618Z 28002KT M04/M11 A3028 RMK A01 T10431111  RH  059%=      5-min Rain = 0
KPD2 120619Z 28002KT M04/M11 A3028 RMK A01 T10431111  RH  059%=      5-min Rain = 0
KPD2 120620Z 28001KT M04/M11 A3028 RMK A01 T10431112  RH  059%=      5-min Rain = 0
KPD2 120621Z 28000KT M04/M11 A3028 RMK A01 T10441111  RH  059%=      5-min Rain = 0
KPD2 120622Z 28000KT M04/M11 A3028 RMK A01 T10441111  RH  059%=      5-min Rain = 0
KPD2 120623Z 28000KT M05/M11 A3028 RMK A01 T10451112  RH  059%=      5-min Rain = 0
KPD2 120624Z 28001KT M05/M11 A3028 RMK A01 T10461114  RH  059%=      5-min Rain = 0
KPD2 120625Z 28001KT M05/M12 A3028 RMK A01 T10481116  RH  059%=      5-min Rain = 0
KPD2 120626Z 31001KT M05/M12 A3028 RMK A01 T10491116  RH  059%=      5-min Rain = 0
KPD2 120627Z 33001KT M05/M12 A3028 RMK A01 T10501115  RH  060%=      5-min Rain = 0
KPD2 120628Z 33001KT M05/M12 A3028 RMK A01 T10501115  RH  061%=      5-min Rain = 0
KPD2 120629Z 33000KT M05/M11 A3028 RMK A01 T10511114  RH  061%=      5-min Rain = 0
KPD2 120630Z 33000KT M05/M11 A3028 RMK A01 T10501114  RH  061%=      5-min Rain = 0
KPD2 120631Z 32001KT M05/M11 A3028 RMK A01 T10511114  RH  061%=      5-min Rain = 0
KPD2 120632Z 30001KT M05/M12 A3028 RMK A01 T10511115  RH  061%=      5-min Rain = 0
KPD2 120633Z 29002KT M05/M12 A3028 RMK A01 T10521115  RH  061%=      5-min Rain = 0
KPD2 120634Z 29003KT M05/M11 A3028 RMK A01 T10511114  RH  062%=      5-min Rain = 0
KPD2 120635Z 28002KT M05/M11 A3028 RMK A01 T10501113  RH  062%=      5-min Rain = 0
KPD2 120636Z 29001KT M05/M11 A3028 RMK A01 T10511113  RH  061%=      5-min Rain = 0
KPD2 120637Z 31001KT M05/M11 A3028 RMK A01 T10511114  RH  061%=      5-min Rain = 0
KPD2 120638Z 31001KT M05/M11 A3028 RMK A01 T10511114  RH  061%=      5-min Rain = 0
KPD2 120639Z 31001KT M05/M11 A3028 RMK A01 T10511113  RH  061%=      5-min Rain = 0
KPD2 120640Z 31000KT M05/M11 A3028 RMK A01 T10511114  RH  062%=      5-min Rain = 0
KPD2 120641Z 30001KT M05/M11 A3028 RMK A01 T10511114  RH  062%=      5-min Rain = 0
KPD2 120642Z 29000KT M05/M11 A3028 RMK A01 T10521114  RH  062%=      5-min Rain = 0
KPD2 120643Z 28000KT M05/M11 A3028 RMK A01 T10521114  RH  062%=      5-min Rain = 0
KPD2 120644Z 27000KT M05/M12 A3028 RMK A01 T10521115  RH  062%=      5-min Rain = 0
KPD2 120645Z 26001KT M05/M12 A3028 RMK A01 T10531115  RH  062%=      5-min Rain = 0
KPD2 120646Z 26001KT M05/M12 A3028 RMK A01 T10531115  RH  062%=      5-min Rain = 0
KPD2 120647Z 25001KT M05/M12 A3028 RMK A01 T10531115  RH  062%=      5-min Rain = 0
KPD2 120648Z 24001KT M05/M12 A3028 RMK A01 T10541116  RH  062%=      5-min Rain = 0
KPD2 120649Z 23001KT M06/M12 A3027 RMK A01 T10551116  RH  062%=      5-min Rain = 0
KPD2 120650Z 23000KT M06/M12 A3027 RMK A01 T10551116  RH  062%=      5-min Rain = 0
KPD2 120651Z 23000KT M06/M12 A3027 RMK A01 T10561116  RH  062%=      5-min Rain = 0
KPD2 120652Z 04000KT M06/M12 A3027 RMK A01 T10561116  RH  063%=      5-min Rain = 0
KPD2 120653Z 04001KT M06/M12 A3027 RMK A01 T10571117  RH  063%=      5-min Rain = 0
KPD2 120654Z 02001KT M06/M12 A3027 RMK A01 T10561116  RH  063%=      5-min Rain = 0
KPD2 120655Z 35002KT M06/M12 A3027 RMK A01 T10561115  RH  063%=      5-min Rain = 0
KPD2 120656Z 33003KT M06/M12 A3027 RMK A01 T10561115  RH  063%=      5-min Rain = 0
KPD2 120657Z 34002KT M06/M12 A3027 RMK A01 T10561115  RH  063%=      5-min Rain = 0
KPD2 120658Z 35002KT M06/M12 A3027 RMK A01 T10571116  RH  063%=      5-min Rain = 0
KPD2 120659Z 34002KT M06/M12 A3027 RMK A01 T10571116  RH  063%=      5-min Rain = 0
KPD2 120700Z 35003KT M06/M12 A3027 RMK A01 T10571116  RH  063%=      5-min Rain = 0
KPD2 120701Z 34003KT M06/M12 A3027 RMK A01 T10571116  RH  063%=      5-min Rain = 0
KPD2 120702Z 34003KT M06/M12 A3027 RMK A01 T10571117  RH  063%=      5-min Rain = 0
KPD2 120703Z 34003KT M06/M12 A3027 RMK A01 T10571116  RH  063%=      5-min Rain = 0
KPD2 120704Z 33002KT M06/M12 A3027 RMK A01 T10581118  RH  063%=      5-min Rain = 0
KPD2 120705Z 31002KT M06/M12 A3027 RMK A01 T10581117  RH  063%=      5-min Rain = 0
KPD2 120706Z 30002KT M06/M12 A3027 RMK A01 T10571115  RH  063%=      5-min Rain = 0
KPD2 120707Z 29003KT M06/M12 A3027 RMK A01 T10561115  RH  063%=      5-min Rain = 0
KPD2 120708Z 28003KT M06/M12 A3027 RMK A01 T10561116  RH  063%=      5-min Rain = 0
KPD2 120709Z 28002KT M06/M12 A3027 RMK A01 T10561116  RH  062%=      5-min Rain = 0
KPD2 120710Z 28002KT M06/M12 A3027 RMK A01 T10561117  RH  062%=      5-min Rain = 0
KPD2 120711Z 28001KT M06/M12 A3027 RMK A01 T10571118  RH  062%=      5-min Rain = 0
KPD2 120712Z 28001KT M06/M12 A3027 RMK A01 T10581118  RH  062%=      5-min Rain = 0
KPD2 120713Z 33001KT M06/M12 A3027 RMK A01 T10591118  RH  063%=      5-min Rain = 0
KPD2 120714Z 34001KT M06/M12 A3027 RMK A01 T10591118  RH  063%=      5-min Rain = 0
KPD2 120715Z 34002KT M06/M12 A3027 RMK A01 T10601118  RH  063%=      5-min Rain = 0
KPD2 120716Z 35002KT M06/M12 A3027 RMK A01 T10611119  RH  064%=      5-min Rain = 0
KPD2 120717Z 34003KT M06/M12 A3027 RMK A01 T10621119  RH  064%=      5-min Rain = 0
KPD2 120718Z 32003KT M06/M12 A3027 RMK A01 T10621119  RH  064%=      5-min Rain = 0
KPD2 120719Z 33003KT M06/M12 A3027 RMK A01 T10631119  RH  064%=      5-min Rain = 0
KPD2 120720Z 32003KT M06/M12 A3027 RMK A01 T10631119  RH  065%=      5-min Rain = 0
KPD2 120721Z 31003KT M06/M12 A3027 RMK A01 T10631118  RH  065%=      5-min Rain = 0
KPD2 120722Z 30003KT M06/M12 A3027 RMK A01 T10621117  RH  065%=      5-min Rain = 0
KPD2 120723Z 30003KT M06/M12 A3027 RMK A01 T10611116  RH  065%=      5-min Rain = 0
KPD2 120724Z 30002KT M06/M12 A3027 RMK A01 T10611117  RH  065%=      5-min Rain = 0
KPD2 120725Z 30002KT M06/M12 A3027 RMK A01 T10611117  RH  065%=      5-min Rain = 0
KPD2 120726Z 29002KT M06/M12 A3027 RMK A01 T10611117  RH  064%=      5-min Rain = 0
KPD2 120727Z 31002KT M06/M12 A3027 RMK A01 T10611118  RH  064%=      5-min Rain = 0
KPD2 120728Z 32001KT M06/M12 A3027 RMK A01 T10621118  RH  064%=      5-min Rain = 0
KPD2 120729Z 34002KT M06/M12 A3027 RMK A01 T10631118  RH  065%=      5-min Rain = 0
KPD2 120730Z 33002KT M06/M12 A3027 RMK A01 T10631118  RH  065%=      5-min Rain = 0
KPD2 120731Z 33002KT M06/M12 A3026 RMK A01 T10631118  RH  065%=      5-min Rain = 0
KPD2 120732Z 34002KT M06/M12 A3026 RMK A01 T10641119  RH  065%=      5-min Rain = 0
KPD2 120733Z 35001KT M06/M12 A3026 RMK A01 T10641120  RH  065%=      5-min Rain = 0
KPD2 120734Z 35001KT M07/M12 A3026 RMK A01 T10651121  RH  064%=      5-min Rain = 0
KPD2 120735Z 35002KT M07/M12 A3026 RMK A01 T10661122  RH  064%=      5-min Rain = 0
KPD2 120736Z 35002KT M07/M12 A3026 RMK A01 T10671122  RH  065%=      5-min Rain = 0
KPD2 120737Z 34001KT M07/M12 A3026 RMK A01 T10671122  RH  065%=      5-min Rain = 0
KPD2 120738Z 29001KT M07/M12 A3026 RMK A01 T10671121  RH  065%=      5-min Rain = 0
KPD2 120739Z 28001KT M07/M12 A3026 RMK A01 T10671121  RH  066%=      5-min Rain = 0
KPD2 120740Z 28001KT M07/M12 A3026 RMK A01 T10671120  RH  066%=      5-min Rain = 0
KPD2 120741Z 28001KT M07/M12 A3026 RMK A01 T10671120  RH  066%=      5-min Rain = 0
KPD2 120742Z 28001KT M07/M12 A3026 RMK A01 T10671120  RH  066%=      5-min Rain = 0
KPD2 120743Z 28002KT M07/M12 A3026 RMK A01 T10671120  RH  066%=      5-min Rain = 0
KPD2 120744Z 28002KT M07/M12 A3026 RMK A01 T10681120  RH  066%=      5-min Rain = 0
KPD2 120745Z 29002KT M07/M12 A3026 RMK A01 T10681120  RH  067%=      5-min Rain = 0
KPD2 120746Z 30002KT M07/M12 A3026 RMK A01 T10671118  RH  067%=      5-min Rain = 0
KPD2 120747Z 31003KT M07/M12 A3026 RMK A01 T10661117  RH  067%=      5-min Rain = 0
KPD2 120748Z 31002KT M07/M12 A3026 RMK A01 T10661116  RH  067%=      5-min Rain = 0
KPD2 120749Z 31001KT M06/M11 A3026 RMK A01 T10641114  RH  067%=      5-min Rain = 0
KPD2 120750Z 31002KT M06/M11 A3026 RMK A01 T10621113  RH  067%=      5-min Rain = 0
KPD2 120751Z 31002KT M06/M11 A3026 RMK A01 T10611114  RH  066%=      5-min Rain = 0
KPD2 120752Z 30003KT M06/M11 A3026 RMK A01 T10611114  RH  066%=      5-min Rain = 0
KPD2 120753Z 31002KT M06/M12 A3026 RMK A01 T10611115  RH  066%=      5-min Rain = 0
KPD2 120754Z 31002KT M06/M12 A3026 RMK A01 T10611115  RH  065%=      5-min Rain = 0
KPD2 120755Z 30002KT M06/M12 A3026 RMK A01 T10611116  RH  065%=      5-min Rain = 0
KPD2 120756Z 32002KT M06/M12 A3026 RMK A01 T10621117  RH  065%=      5-min Rain = 0
KPD2 120757Z 32002KT M06/M12 A3026 RMK A01 T10631117  RH  065%=      5-min Rain = 0
KPD2 120758Z 34002KT M06/M12 A3026 RMK A01 T10631118  RH  065%=      5-min Rain = 0
KPD2 120759Z 33003KT M06/M12 A3026 RMK A01 T10641118  RH  065%=      5-min Rain = 0
KPD2 120800Z 32003KT M06/M12 A3026 RMK A01 T10641117  RH  066%=      5-min Rain = 0
KPD2 120801Z 33003KT M06/M12 A3026 RMK A01 T10641117  RH  066%=      5-min Rain = 0
KPD2 120802Z 34003KT M06/M12 A3026 RMK A01 T10641117  RH  066%=      5-min Rain = 0
KPD2 120803Z 34003KT M06/M12 A3026 RMK A01 T10641117  RH  066%=      5-min Rain = 0
KPD2 120804Z 34002KT M06/M12 A3026 RMK A01 T10641117  RH  066%=      5-min Rain = 0
KPD2 120805Z 33002KT M06/M12 A3026 RMK A01 T10641117  RH  066%=      5-min Rain = 0
KPD2 120806Z 33002KT M06/M12 A3026 RMK A01 T10641116  RH  066%=      5-min Rain = 0
KPD2 120807Z 33002KT M06/M12 A3026 RMK A01 T10641116  RH  066%=      5-min Rain = 0
KPD2 120808Z 31002KT M06/M12 A3026 RMK A01 T10641116  RH  067%=      5-min Rain = 0
KPD2 120809Z 31002KT M06/M12 A3027 RMK A01 T10631116  RH  067%=      5-min Rain = 0
KPD2 120810Z 30002KT M06/M12 A3027 RMK A01 T10631115  RH  066%=      5-min Rain = 0
KPD2 120811Z 29002KT M06/M12 A3027 RMK A01 T10621115  RH  066%=      5-min Rain = 0
KPD2 120812Z 29002KT M06/M12 A3027 RMK A01 T10621116  RH  066%=      5-min Rain = 0
KPD2 120813Z 28002KT M06/M12 A3027 RMK A01 T10631117  RH  065%=      5-min Rain = 0
KPD2 120814Z 28001KT M06/M12 A3027 RMK A01 T10631117  RH  065%=      5-min Rain = 0
KPD2 120815Z 29001KT M06/M12 A3027 RMK A01 T10631117  RH  066%=      5-min Rain = 0
KPD2 120816Z 29001KT M06/M12 A3027 RMK A01 T10641117  RH  066%=      5-min Rain = 0
KPD2 120817Z 30001KT M07/M12 A3026 RMK A01 T10651118  RH  066%=      5-min Rain = 0
KPD2 120818Z 33001KT M07/M12 A3026 RMK A01 T10651118  RH  066%=      5-min Rain = 0
KPD2 120819Z 33002KT M07/M12 A3026 RMK A01 T10661118  RH  066%=      5-min Rain = 0
KPD2 120820Z 33003KT M07/M12 A3026 RMK A01 T10671118  RH  067%=      5-min Rain = 0
KPD2 120821Z 32003KT M07/M12 A3026 RMK A01 T10671119  RH  067%=      5-min Rain = 0
KPD2 120822Z 32003KT M07/M12 A3026 RMK A01 T10681120  RH  067%=      5-min Rain = 0
KPD2 120823Z 34002KT M07/M12 A3026 RMK A01 T10691120  RH  067%=      5-min Rain = 0
KPD2 120824Z 35002KT M07/M12 A3026 RMK A01 T10701120  RH  067%=      5-min Rain = 0
KPD2 120825Z 35003KT M07/M12 A3026 RMK A01 T10701120  RH  068%=      5-min Rain = 0
KPD2 120826Z 33004KT M07/M12 A3026 RMK A01 T10701120  RH  068%=      5-min Rain = 0
KPD2 120827Z 34004KT M07/M12 A3026 RMK A01 T10701119  RH  068%=      5-min Rain = 0
KPD2 120828Z 35004KT M07/M12 A3026 RMK A01 T10681116  RH  069%=      5-min Rain = 0
KPD2 120829Z 35003KT M07/M12 A3026 RMK A01 T10661115  RH  068%=      5-min Rain = 0
KPD2 120830Z 34003KT M06/M11 A3026 RMK A01 T10641114  RH  068%=      5-min Rain = 0
KPD2 120831Z 33003KT M06/M11 A3026 RMK A01 T10631114  RH  067%=      5-min Rain = 0
KPD2 120832Z 32003KT M06/M11 A3026 RMK A01 T10631114  RH  067%=      5-min Rain = 0
KPD2 120833Z 33002KT M06/M11 A3026 RMK A01 T10621114  RH  067%=      5-min Rain = 0
KPD2 120834Z 32003KT M06/M11 A3026 RMK A01 T10611113  RH  067%=      5-min Rain = 0
KPD2 120835Z 32002KT M06/M11 A3025 RMK A01 T10601113  RH  066%=      5-min Rain = 0
KPD2 120836Z 32002KT M06/M11 A3025 RMK A01 T10611114  RH  066%=      5-min Rain = 0
KPD2 120837Z 31002KT M06/M11 A3025 RMK A01 T10611114  RH  066%=      5-min Rain = 0
KPD2 120838Z 30001KT M06/M11 A3025 RMK A01 T10611114  RH  066%=      5-min Rain = 0
KPD2 120839Z 30001KT M06/M11 A3025 RMK A01 T10601114  RH  066%=      5-min Rain = 0
KPD2 120840Z 00000KT M06/M11 A3025 RMK A01 T10601114  RH  066%=      5-min Rain = 0
KPD2 120841Z 24001KT M06/M12 A3025 RMK A01 T10611115  RH  066%=      5-min Rain = 0
KPD2 120842Z 23001KT M06/M12 A3025 RMK A01 T10611115  RH  066%=      5-min Rain = 0
KPD2 120843Z 23001KT M06/M12 A3025 RMK A01 T10621116  RH  066%=      5-min Rain = 0
KPD2 120844Z 23001KT M06/M12 A3025 RMK A01 T10631116  RH  066%=      5-min Rain = 0
KPD2 120845Z 24001KT M06/M12 A3025 RMK A01 T10631116  RH  066%=      5-min Rain = 0
KPD2 120846Z 24000KT M06/M12 A3024 RMK A01 T10631116  RH  066%=      5-min Rain = 0
KPD2 120847Z 30000KT M06/M12 A3024 RMK A01 T10641116  RH  067%=      5-min Rain = 0
KPD2 120848Z 31001KT M06/M12 A3024 RMK A01 T10641116  RH  067%=      5-min Rain = 0
KPD2 120849Z 36001KT M07/M12 A3024 RMK A01 T10651116  RH  067%=      5-min Rain = 0
KPD2 120850Z 01001KT M07/M12 A3024 RMK A01 T10651116  RH  067%=      5-min Rain = 0
KPD2 120851Z 01001KT M07/M12 A3024 RMK A01 T10651116  RH  067%=      5-min Rain = 0
KPD2 120852Z 34000KT M07/M12 A3024 RMK A01 T10661116  RH  067%=      5-min Rain = 0
KPD2 120853Z 31001KT M07/M12 A3024 RMK A01 T10661116  RH  068%=      5-min Rain = 0
KPD2 120854Z 29002KT M07/M12 A3024 RMK A01 T10661116  RH  068%=      5-min Rain = 0
KPD2 120855Z 29001KT M07/M12 A3024 RMK A01 T10651116  RH  067%=      5-min Rain = 0
KPD2 120856Z 29001KT M07/M12 A3024 RMK A01 T10661116  RH  067%=      5-min Rain = 0
KPD2 120857Z 29001KT M07/M12 A3024 RMK A01 T10661117  RH  067%=      5-min Rain = 0
KPD2 120858Z 29001KT M07/M12 A3024 RMK A01 T10671117  RH  067%=      5-min Rain = 0
KPD2 120859Z 00000KT M07/M12 A3024 RMK A01 T10671117  RH  068%=      5-min Rain = 0
KPD2 120900Z 00000KT M07/M12 A3024 RMK A01 T10671116  RH  068%=      5-min Rain = 0
KPD2 120901Z 29000KT M07/M12 A3024 RMK A01 T10671116  RH  068%=      5-min Rain = 0
KPD2 120902Z 29000KT M07/M12 A3024 RMK A01 T10671116  RH  068%=      5-min Rain = 0
KPD2 120903Z 27001KT M07/M12 A3024 RMK A01 T10671116  RH  068%=      5-min Rain = 0
KPD2 120904Z 27002KT M07/M12 A3024 RMK A01 T10671116  RH  068%=      5-min Rain = 0
KPD2 120905Z 27001KT M07/M12 A3024 RMK A01 T10671116  RH  068%=      5-min Rain = 0
KPD2 120906Z 27001KT M07/M12 A3024 RMK A01 T10661115  RH  068%=      5-min Rain = 0
KPD2 120907Z 27001KT M07/M12 A3024 RMK A01 T10661116  RH  068%=      5-min Rain = 0
KPD2 120908Z 27001KT M07/M12 A3024 RMK A01 T10671116  RH  068%=      5-min Rain = 0
KPD2 120909Z 28000KT M07/M12 A3024 RMK A01 T10671116  RH  068%=      5-min Rain = 0
KPD2 120910Z 00000KT M07/M12 A3024 RMK A01 T10661116  RH  068%=      5-min Rain = 0
KPD2 120911Z 34001KT M07/M12 A3024 RMK A01 T10661115  RH  068%=      5-min Rain = 0
KPD2 120912Z 35002KT M07/M12 A3025 RMK A01 T10671116  RH  068%=      5-min Rain = 0
KPD2 120913Z 34002KT M07/M12 A3025 RMK A01 T10671116  RH  068%=      5-min Rain = 0
KPD2 120914Z 33002KT M07/M12 A3024 RMK A01 T10671117  RH  068%=      5-min Rain = 0
KPD2 120915Z 32002KT M07/M12 A3024 RMK A01 T10681118  RH  068%=      5-min Rain = 0
KPD2 120916Z 34001KT M07/M12 A3024 RMK A01 T10681118  RH  068%=      5-min Rain = 0
KPD2 120917Z 00001KT M07/M12 A3024 RMK A01 T10681118  RH  068%=      5-min Rain = 0
KPD2 120918Z 36001KT M07/M12 A3024 RMK A01 T10681116  RH  069%=      5-min Rain = 0
KPD2 120919Z 33001KT M07/M12 A3024 RMK A01 T10681116  RH  069%=      5-min Rain = 0
KPD2 120920Z 32001KT M07/M12 A3024 RMK A01 T10671115  RH  069%=      5-min Rain = 0
KPD2 120921Z 32002KT M07/M11 A3024 RMK A01 T10661114  RH  069%=      5-min Rain = 0
KPD2 120922Z 32002KT M07/M11 A3024 RMK A01 T10661114  RH  068%=      5-min Rain = 0
KPD2 120923Z 33002KT M07/M12 A3024 RMK A01 T10661115  RH  068%=      5-min Rain = 0
KPD2 120924Z 34002KT M07/M12 A3024 RMK A01 T10661116  RH  068%=      5-min Rain = 0
KPD2 120925Z 34002KT M07/M12 A3024 RMK A01 T10661116  RH  068%=      5-min Rain = 0
KPD2 120926Z 34002KT M07/M12 A3024 RMK A01 T10671116  RH  068%=      5-min Rain = 0
KPD2 120927Z 33002KT M07/M12 A3024 RMK A01 T10681118  RH  068%=      5-min Rain = 0
KPD2 120928Z 31002KT M07/M12 A3024 RMK A01 T10701121  RH  067%=      5-min Rain = 0
KPD2 120929Z 31002KT M07/M13 A3024 RMK A01 T10721125  RH  066%=      5-min Rain = 0
KPD2 120930Z 31003KT M07/M13 A3024 RMK A01 T10741127  RH  066%=      5-min Rain = 0
KPD2 120931Z 32003KT M08/M13 A3024 RMK A01 T10761126  RH  067%=      5-min Rain = 0
KPD2 120932Z 32004KT M08/M13 A3024 RMK A01 T10771125  RH  068%=      5-min Rain = 0
KPD2 120933Z 31004KT M08/M12 A3024 RMK A01 T10771124  RH  069%=      5-min Rain = 0
KPD2 120934Z 31004KT M08/M12 A3024 RMK A01 T10781124  RH  070%=      5-min Rain = 0
KPD2 120935Z 30003KT M08/M12 A3024 RMK A01 T10791124  RH  070%=      5-min Rain = 0
KPD2 120936Z 29003KT M08/M12 A3024 RMK A01 T10791124  RH  070%=      5-min Rain = 0
KPD2 120937Z 28002KT M08/M12 A3024 RMK A01 T10791123  RH  071%=      5-min Rain = 0
KPD2 120938Z 28002KT M08/M12 A3024 RMK A01 T10801123  RH  071%=      5-min Rain = 0
KPD2 120939Z 27001KT M08/M12 A3024 RMK A01 T10801123  RH  071%=      5-min Rain = 0
KPD2 120940Z 27002KT M08/M12 A3024 RMK A01 T10801122  RH  071%=      5-min Rain = 0
KPD2 120941Z 28001KT M08/M12 A3024 RMK A01 T10791122  RH  072%=      5-min Rain = 0
KPD2 120942Z 29001KT M08/M12 A3024 RMK A01 T10801122  RH  072%=      5-min Rain = 0
KPD2 120943Z 30001KT M08/M12 A3024 RMK A01 T10791121  RH  072%=      5-min Rain = 0
KPD2 120944Z 30001KT M08/M12 A3024 RMK A01 T10791121  RH  072%=      5-min Rain = 0
KPD2 120945Z 32001KT M08/M12 A3024 RMK A01 T10791121  RH  072%=      5-min Rain = 0
KPD2 120946Z 35001KT M08/M12 A3024 RMK A01 T10791122  RH  071%=      5-min Rain = 0
KPD2 120947Z 33002KT M08/M12 A3024 RMK A01 T10791122  RH  071%=      5-min Rain = 0
KPD2 120948Z 32002KT M08/M12 A3024 RMK A01 T10791122  RH  071%=      5-min Rain = 0
KPD2 120949Z 30002KT M08/M12 A3024 RMK A01 T10801123  RH  071%=      5-min Rain = 0
KPD2 120950Z 31002KT M08/M12 A3024 RMK A01 T10801123  RH  071%=      5-min Rain = 0
KPD2 120951Z 33002KT M08/M12 A3024 RMK A01 T10791122  RH  071%=      5-min Rain = 0
KPD2 120952Z 32002KT M08/M12 A3024 RMK A01 T10791122  RH  071%=      5-min Rain = 0
KPD2 120953Z 34002KT M08/M12 A3024 RMK A01 T10791121  RH  071%=      5-min Rain = 0
KPD2 120954Z 34003KT M08/M12 A3024 RMK A01 T10781121  RH  071%=      5-min Rain = 0
KPD2 120955Z 33003KT M08/M12 A3024 RMK A01 T10781121  RH  071%=      5-min Rain = 0
KPD2 120956Z 33003KT M08/M12 A3024 RMK A01 T10771120  RH  071%=      5-min Rain = 0
KPD2 120957Z 33002KT M08/M12 A3024 RMK A01 T10761120  RH  071%=      5-min Rain = 0
KPD2 120958Z 31002KT M08/M12 A3024 RMK A01 T10761120  RH  071%=      5-min Rain = 0
KPD2 120959Z 31002KT M08/M12 A3024 RMK A01 T10761120  RH  070%=      5-min Rain = 0
KPD2 121000Z 30002KT M08/M12 A3024 RMK A01 T10751120  RH  070%=      5-min Rain = 0
KPD2 121001Z 30002KT M08/M12 A3024 RMK A01 T10751119  RH  070%=      5-min Rain = 0
KPD2 121002Z 30003KT M08/M12 A3024 RMK A01 T10751120  RH  070%=      5-min Rain = 0
KPD2 121003Z 30002KT M08/M12 A3024 RMK A01 T10751121  RH  070%=      5-min Rain = 0
KPD2 121004Z 29002KT M08/M12 A3024 RMK A01 T10751121  RH  069%=      5-min Rain = 0
KPD2 121005Z 29002KT M08/M12 A3024 RMK A01 T10751121  RH  069%=      5-min Rain = 0
KPD2 121006Z 28002KT M08/M12 A3024 RMK A01 T10751122  RH  069%=      5-min Rain = 0
KPD2 121007Z 29002KT M08/M12 A3024 RMK A01 T10751122  RH  069%=      5-min Rain = 0
KPD2 121008Z 28002KT M08/M12 A3024 RMK A01 T10751122  RH  069%=      5-min Rain = 0
KPD2 121009Z 29002KT M08/M12 A3024 RMK A01 T10761122  RH  070%=      5-min Rain = 0
KPD2 121010Z 30001KT M08/M12 A3024 RMK A01 T10761122  RH  070%=      5-min Rain = 0
KPD2 121011Z 30002KT M08/M12 A3024 RMK A01 T10761122  RH  070%=      5-min Rain = 0
KPD2 121012Z 30002KT M08/M12 A3024 RMK A01 T10761122  RH  070%=      5-min Rain = 0
KPD2 121013Z 29002KT M08/M12 A3024 RMK A01 T10771122  RH  070%=      5-min Rain = 0
KPD2 121014Z 28002KT M08/M12 A3024 RMK A01 T10771122  RH  070%=      5-min Rain = 0
KPD2 121015Z 29002KT M08/M12 A3024 RMK A01 T10771122  RH  070%=      5-min Rain = 0
KPD2 121016Z 29003KT M08/M12 A3024 RMK A01 T10761121  RH  070%=      5-min Rain = 0
KPD2 121017Z 29002KT M08/M12 A3024 RMK A01 T10771122  RH  070%=      5-min Rain = 0
KPD2 121018Z 28002KT M08/M12 A3024 RMK A01 T10771121  RH  071%=      5-min Rain = 0
KPD2 121019Z 29002KT M08/M12 A3024 RMK A01 T10771121  RH  071%=      5-min Rain = 0
KPD2 121020Z 29002KT M08/M12 A3024 RMK A01 T10761119  RH  071%=      5-min Rain = 0
KPD2 121021Z 29002KT M08/M12 A3025 RMK A01 T10751119  RH  071%=      5-min Rain = 0
KPD2 121022Z 30002KT M08/M12 A3024 RMK A01 T10751120  RH  071%=      5-min Rain = 0
KPD2 121023Z 32002KT M08/M12 A3024 RMK A01 T10751120  RH  070%=      5-min Rain = 0
KPD2 121024Z 31002KT M08/M12 A3024 RMK A01 T10751120  RH  070%=      5-min Rain = 0
KPD2 121025Z 32002KT M08/M12 A3025 RMK A01 T10751120  RH  070%=      5-min Rain = 0
KPD2 121026Z 32002KT M08/M12 A3025 RMK A01 T10751119  RH  071%=      5-min Rain = 0
KPD2 121027Z 33002KT M08/M12 A3025 RMK A01 T10751120  RH  070%=      5-min Rain = 0
KPD2 121028Z 34002KT M08/M12 A3025 RMK A01 T10751120  RH  070%=      5-min Rain = 0
KPD2 121029Z 33002KT M08/M12 A3025 RMK A01 T10761121  RH  070%=      5-min Rain = 0
KPD2 121030Z 34002KT M08/M12 A3025 RMK A01 T10761121  RH  070%=      5-min Rain = 0
KPD2 121031Z 34002KT M08/M12 A3025 RMK A01 T10771121  RH  070%=      5-min Rain = 0
KPD2 121032Z 33003KT M08/M12 A3025 RMK A01 T10771121  RH  071%=      5-min Rain = 0
KPD2 121033Z 32002KT M08/M12 A3025 RMK A01 T10771121  RH  071%=      5-min Rain = 0
KPD2 121034Z 33002KT M08/M12 A3025 RMK A01 T10771121  RH  071%=      5-min Rain = 0
KPD2 121035Z 33002KT M08/M12 A3024 RMK A01 T10771120  RH  071%=      5-min Rain = 0
KPD2 121036Z 31002KT M08/M12 A3024 RMK A01 T10771120  RH  071%=      5-min Rain = 0
KPD2 121037Z 30003KT M08/M12 A3024 RMK A01 T10771120  RH  071%=      5-min Rain = 0
KPD2 121038Z 30003KT M08/M12 A3024 RMK A01 T10761119  RH  071%=      5-min Rain = 0
KPD2 121039Z 30003KT M08/M12 A3025 RMK A01 T10761120  RH  071%=      5-min Rain = 0
KPD2 121040Z 29003KT M08/M12 A3025 RMK A01 T10761120  RH  071%=      5-min Rain = 0
KPD2 121041Z 29003KT M08/M12 A3025 RMK A01 T10761120  RH  071%=      5-min Rain = 0
KPD2 121042Z 29002KT M08/M12 A3025 RMK A01 T10751119  RH  071%=      5-min Rain = 0
KPD2 121043Z 29002KT M08/M12 A3025 RMK A01 T10751120  RH  070%=      5-min Rain = 0
KPD2 121044Z 30002KT M08/M12 A3025 RMK A01 T10761120  RH  070%=      5-min Rain = 0
KPD2 121045Z 29002KT M08/M12 A3025 RMK A01 T10761120  RH  070%=      5-min Rain = 0
KPD2 121046Z 30002KT M08/M12 A3025 RMK A01 T10761120  RH  071%=      5-min Rain = 0
KPD2 121047Z 29002KT M08/M12 A3025 RMK A01 T10761120  RH  071%=      5-min Rain = 0
KPD2 121048Z 29003KT M08/M12 A3025 RMK A01 T10771121  RH  071%=      5-min Rain = 0
KPD2 121049Z 30003KT M08/M12 A3025 RMK A01 T10771121  RH  071%=      5-min Rain = 0
KPD2 121050Z 30003KT M08/M12 A3025 RMK A01 T10771121  RH  071%=      5-min Rain = 0
KPD2 121051Z 30003KT M08/M12 A3025 RMK A01 T10781122  RH  071%=      5-min Rain = 0
KPD2 121052Z 29003KT M08/M12 A3025 RMK A01 T10791123  RH  071%=      5-min Rain = 0
KPD2 121053Z 29002KT M08/M12 A3025 RMK A01 T10801124  RH  071%=      5-min Rain = 0
KPD2 121054Z 30002KT M08/M13 A3025 RMK A01 T10811125  RH  071%=      5-min Rain = 0
KPD2 121055Z 30002KT M08/M13 A3025 RMK A01 T10821125  RH  071%=      5-min Rain = 0
KPD2 121056Z 30002KT M08/M13 A3025 RMK A01 T10821125  RH  072%=      5-min Rain = 0
KPD2 121057Z 29001KT M08/M12 A3025 RMK A01 T10821123  RH  072%=      5-min Rain = 0
KPD2 121058Z 28002KT M08/M12 A3025 RMK A01 T10821123  RH  073%=      5-min Rain = 0
KPD2 121059Z 28001KT M08/M12 A3025 RMK A01 T10831123  RH  073%=      5-min Rain = 0
KPD2 121100Z 00000KT M08/M12 A3024 RMK A01 T10821123  RH  073%=      5-min Rain = 0
KPD2 121101Z 00000KT M08/M12 A3024 RMK A01 T10831123  RH  073%=      5-min Rain = 0
KPD2 121102Z 29000KT M08/M12 A3024 RMK A01 T10831123  RH  073%=      5-min Rain = 0
KPD2 121103Z 31001KT M08/M12 A3024 RMK A01 T10831123  RH  073%=      5-min Rain = 0
KPD2 121104Z 31002KT M08/M12 A3024 RMK A01 T10831122  RH  073%=      5-min Rain = 0
KPD2 121105Z 30002KT M08/M12 A3024 RMK A01 T10821121  RH  074%=      5-min Rain = 0
KPD2 121106Z 33001KT M08/M12 A3024 RMK A01 T10821121  RH  074%=      5-min Rain = 0
KPD2 121107Z 35001KT M08/M12 A3024 RMK A01 T10821121  RH  074%=      5-min Rain = 0
KPD2 121108Z 36001KT M08/M12 A3024 RMK A01 T10811120  RH  074%=      5-min Rain = 0
KPD2 121109Z 32002KT M08/M12 A3024 RMK A01 T10791118  RH  074%=      5-min Rain = 0
KPD2 121110Z 32001KT M08/M12 A3024 RMK A01 T10781118  RH  073%=      5-min Rain = 0
KPD2 121111Z 32002KT M08/M12 A3024 RMK A01 T10781118  RH  073%=      5-min Rain = 0
KPD2 121112Z 33001KT M08/M12 A3024 RMK A01 T10781119  RH  073%=      5-min Rain = 0
KPD2 121113Z 33002KT M08/M12 A3024 RMK A01 T10781119  RH  072%=      5-min Rain = 0
KPD2 121114Z 30002KT M08/M12 A3024 RMK A01 T10781119  RH  072%=      5-min Rain = 0
KPD2 121115Z 29001KT M08/M12 A3024 RMK A01 T10781119  RH  073%=      5-min Rain = 0
KPD2 121116Z 29001KT M08/M12 A3024 RMK A01 T10771118  RH  073%=      5-min Rain = 0
KPD2 121117Z 29001KT M08/M12 A3024 RMK A01 T10771118  RH  072%=      5-min Rain = 0
KPD2 121118Z 29001KT M08/M12 A3024 RMK A01 T10771118  RH  072%=      5-min Rain = 0
KPD2 121119Z 28001KT M08/M12 A3024 RMK A01 T10771118  RH  072%=      5-min Rain = 0
KPD2 121120Z 26001KT M08/M12 A3024 RMK A01 T10771119  RH  072%=      5-min Rain = 0
KPD2 121121Z 00000KT M08/M12 A3024 RMK A01 T10771118  RH  072%=      5-min Rain = 0
KPD2 121122Z 26000KT M08/M12 A3024 RMK A01 T10771119  RH  072%=      5-min Rain = 0
KPD2 121123Z 26001KT M08/M12 A3023 RMK A01 T10771119  RH  072%=      5-min Rain = 0
KPD2 121124Z 11001KT M08/M12 A3023 RMK A01 T10771119  RH  072%=      5-min Rain = 0
KPD2 121125Z 11000KT M08/M12 A3023 RMK A01 T10771118  RH  072%=      5-min Rain = 0
KPD2 121126Z 00000KT M08/M12 A3023 RMK A01 T10771118  RH  072%=      5-min Rain = 0
KPD2 121127Z 00000KT M08/M12 A3023 RMK A01 T10771119  RH  072%=      5-min Rain = 0
KPD2 121128Z 00000KT M08/M12 A3024 RMK A01 T10771119  RH  072%=      5-min Rain = 0
KPD2 121129Z 11000KT M08/M12 A3023 RMK A01 T10761118  RH  072%=      5-min Rain = 0
KPD2 121130Z 23001KT M08/M12 A3023 RMK A01 T10761118  RH  072%=      5-min Rain = 0
KPD2 121131Z 25001KT M08/M12 A3023 RMK A01 T10761118  RH  072%=      5-min Rain = 0
KPD2 121132Z 23000KT M08/M12 A3023 RMK A01 T10761118  RH  072%=      5-min Rain = 0
KPD2 121133Z 00000KT M08/M12 A3023 RMK A01 T10761118  RH  071%=      5-min Rain = 0
KPD2 121134Z 00000KT M08/M12 A3023 RMK A01 T10761119  RH  071%=      5-min Rain = 0
KPD2 121135Z 24000KT M08/M12 A3024 RMK A01 T10771119  RH  072%=      5-min Rain = 0
KPD2 121136Z 30000KT M08/M12 A3024 RMK A01 T10771119  RH  072%=      5-min Rain = 0
KPD2 121137Z 35002KT M08/M12 A3024 RMK A01 T10771119  RH  072%=      5-min Rain = 0
KPD2 121138Z 35001KT M08/M12 A3024 RMK A01 T10781119  RH  072%=      5-min Rain = 0
KPD2 121139Z 34001KT M08/M12 A3024 RMK A01 T10781119  RH  073%=      5-min Rain = 0
KPD2 121140Z 32000KT M08/M12 A3024 RMK A01 T10791120  RH  072%=      5-min Rain = 0
KPD2 121141Z 00000KT M08/M12 A3024 RMK A01 T10801123  RH  071%=      5-min Rain = 0
KPD2 121142Z 00000KT M08/M12 A3024 RMK A01 T10811123  RH  072%=      5-min Rain = 0
KPD2 121143Z 00000KT M08/M12 A3024 RMK A01 T10811122  RH  072%=      5-min Rain = 0
KPD2 121144Z 00000KT M08/M12 A3024 RMK A01 T10811122  RH  073%=      5-min Rain = 0
KPD2 121145Z 00000KT M08/M12 A3024 RMK A01 T10821121  RH  073%=      5-min Rain = 0
KPD2 121146Z 30000KT M08/M12 A3024 RMK A01 T10821122  RH  073%=      5-min Rain = 0
KPD2 121147Z 30001KT M08/M12 A3024 RMK A01 T10831122  RH  073%=      5-min Rain = 0
KPD2 121148Z 30001KT M08/M12 A3024 RMK A01 T10831122  RH  073%=      5-min Rain = 0
KPD2 121149Z 30001KT M08/M12 A3024 RMK A01 T10831122  RH  074%=      5-min Rain = 0
KPD2 121150Z 30002KT M08/M12 A3024 RMK A01 T10841123  RH  073%=      5-min Rain = 0
KPD2 121151Z 30002KT M09/M13 A3024 RMK A01 T10861125  RH  073%=      5-min Rain = 0
KPD2 121152Z 30002KT M09/M13 A3024 RMK A01 T10881128  RH  073%=      5-min Rain = 0
KPD2 121153Z 30002KT M09/M13 A3024 RMK A01 T10901131  RH  072%=      5-min Rain = 0
KPD2 121154Z 30002KT M09/M13 A3024 RMK A01 T10921132  RH  072%=      5-min Rain = 0
KPD2 121155Z 30000KT M09/M13 A3024 RMK A01 T10921130  RH  074%=      5-min Rain = 0
KPD2 121156Z 00000KT M09/M13 A3024 RMK A01 T10921129  RH  075%=      5-min Rain = 0
KPD2 121157Z 00000KT M09/M13 A3024 RMK A01 T10931130  RH  075%=      5-min Rain = 0
KPD2 121158Z 30000KT M09/M13 A3024 RMK A01 T10941130  RH  075%=      5-min Rain = 0
KPD2 121159Z 30000KT M09/M13 A3024 RMK A01 T10941129  RH  075%=      5-min Rain = 0
KPD2 121200Z 30000KT M09/M13 A3024 RMK A01 T10941128  RH  076%=      5-min Rain = 0
KPD2 121201Z 00000KT M09/M13 A3024 RMK A01 T10931125  RH  077%=      5-min Rain = 0
KPD2 121202Z 00000KT M09/M12 A3024 RMK A01 T10911122  RH  078%=      5-min Rain = 0
KPD2 121203Z 00000KT M09/M12 A3024 RMK A01 T10891121  RH  078%=      5-min Rain = 0
KPD2 121204Z 30000KT M09/M12 A3024 RMK A01 T10891120  RH  078%=      5-min Rain = 0
KPD2 121205Z 29001KT M09/M12 A3024 RMK A01 T10871119  RH  078%=      5-min Rain = 0
KPD2 121206Z 28000KT M09/M12 A3024 RMK A01 T10851118  RH  077%=      5-min Rain = 0
KPD2 121207Z 28000KT M08/M12 A3024 RMK A01 T10841119  RH  076%=      5-min Rain = 0
KPD2 121208Z 30000KT M08/M12 A3024 RMK A01 T10841119  RH  076%=      5-min Rain = 0
KPD2 121209Z 32001KT M08/M12 A3024 RMK A01 T10841120  RH  075%=      5-min Rain = 0
KPD2 121210Z 32001KT M08/M12 A3024 RMK A01 T10821118  RH  075%=      5-min Rain = 0
KPD2 121211Z 00000KT M08/M12 A3024 RMK A01 T10821118  RH  075%=      5-min Rain = 0
KPD2 121212Z 01001KT M08/M12 A3024 RMK A01 T10821119  RH  075%=      5-min Rain = 0
KPD2 121213Z 01000KT M08/M12 A3024 RMK A01 T10821119  RH  074%=      5-min Rain = 0
KPD2 121214Z 01000KT M08/M12 A3024 RMK A01 T10811118  RH  075%=      5-min Rain = 0
KPD2 121215Z 00000KT M08/M12 A3024 RMK A01 T10811118  RH  075%=      5-min Rain = 0
KPD2 121216Z 00000KT M08/M12 A3024 RMK A01 T10811120  RH  074%=      5-min Rain = 0
KPD2 121217Z 00000KT M08/M12 A3024 RMK A01 T10821123  RH  073%=      5-min Rain = 0
KPD2 121218Z 00000KT M08/M13 A3024 RMK A01 T10841125  RH  072%=      5-min Rain = 0
KPD2 121219Z 11000KT M09/M13 A3024 RMK A01 T10851126  RH  072%=      5-min Rain = 0
KPD2 121220Z 12002KT M09/M13 A3024 RMK A01 T10871128  RH  072%=      5-min Rain = 0
KPD2 121221Z 13002KT M09/M13 A3023 RMK A01 T10871128  RH  072%=      5-min Rain = 0
KPD2 121222Z 13002KT M09/M13 A3023 RMK A01 T10881128  RH  073%=      5-min Rain = 0
KPD2 121223Z 14001KT M09/M13 A3023 RMK A01 T10891129  RH  073%=      5-min Rain = 0
KPD2 121224Z 14001KT M09/M13 A3023 RMK A01 T10901129  RH  073%=      5-min Rain = 0
KPD2 121225Z 14001KT M09/M13 A3023 RMK A01 T10901129  RH  074%=      5-min Rain = 0
KPD2 121226Z 14001KT M09/M13 A3023 RMK A01 T10911129  RH  074%=      5-min Rain = 0
KPD2 121227Z 00000KT M09/M13 A3023 RMK A01 T10921129  RH  074%=      5-min Rain = 0
KPD2 121228Z 00000KT M09/M13 A3023 RMK A01 T10921129  RH  075%=      5-min Rain = 0
KPD2 121229Z 00000KT M09/M13 A3023 RMK A01 T10921128  RH  075%=      5-min Rain = 0
KPD2 121230Z 15000KT M09/M13 A3023 RMK A01 T10921128  RH  075%=      5-min Rain = 0
KPD2 121231Z 14002KT M09/M13 A3023 RMK A01 T10921128  RH  075%=      5-min Rain = 0
KPD2 121232Z 13002KT M09/M13 A3023 RMK A01 T10931129  RH  075%=      5-min Rain = 0
KPD2 121233Z 13002KT M09/M13 A3023 RMK A01 T10931129  RH  075%=      5-min Rain = 0
KPD2 121234Z 13001KT M09/M13 A3023 RMK A01 T10931130  RH  075%=      5-min Rain = 0
KPD2 121235Z 14001KT M09/M13 A3023 RMK A01 T10931130  RH  075%=      5-min Rain = 0
KPD2 121236Z 15001KT M09/M13 A3023 RMK A01 T10931129  RH  075%=      5-min Rain = 0
KPD2 121237Z 15001KT M09/M13 A3023 RMK A01 T10921127  RH  076%=      5-min Rain = 0
KPD2 121238Z 15001KT M09/M13 A3023 RMK A01 T10911126  RH  076%=      5-min Rain = 0
KPD2 121239Z 15000KT M09/M13 A3023 RMK A01 T10911125  RH  076%=      5-min Rain = 0
KPD2 121240Z 00000KT M09/M13 A3023 RMK A01 T10911126  RH  076%=      5-min Rain = 0
KPD2 121241Z 00000KT M09/M13 A3023 RMK A01 T10921129  RH  074%=      5-min Rain = 0
KPD2 121242Z 00000KT M09/M13 A3023 RMK A01 T10941132  RH  074%=      5-min Rain = 0
KPD2 121243Z 00000KT M10/M13 A3023 RMK A01 T10951132  RH  074%=      5-min Rain = 0
KPD2 121244Z 17000KT M10/M13 A3023 RMK A01 T10951132  RH  075%=      5-min Rain = 0
KPD2 121245Z 24000KT M10/M13 A3024 RMK A01 T10961131  RH  075%=      5-min Rain = 0
KPD2 121246Z 24000KT M10/M13 A3024 RMK A01 T10961131  RH  076%=      5-min Rain = 0
KPD2 121247Z 24001KT M10/M13 A3024 RMK A01 T10971131  RH  076%=      5-min Rain = 0
KPD2 121248Z 24001KT M10/M13 A3024 RMK A01 T10971130  RH  077%=      5-min Rain = 0
KPD2 121249Z 27000KT M10/M13 A3024 RMK A01 T10951127  RH  077%=      5-min Rain = 0
KPD2 121250Z 28000KT M09/M13 A3024 RMK A01 T10941125  RH  078%=      5-min Rain = 0
KPD2 121251Z 35001KT M09/M12 A3024 RMK A01 T10931124  RH  078%=      5-min Rain = 0
KPD2 121252Z 36002KT M09/M12 A3024 RMK A01 T10921124  RH  078%=      5-min Rain = 0
KPD2 121253Z 00002KT M09/M12 A3024 RMK A01 T10911123  RH  078%=      5-min Rain = 0
KPD2 121254Z 01002KT M09/M12 A3024 RMK A01 T10911123  RH  077%=      5-min Rain = 0
KPD2 121255Z 01002KT M09/M12 A3024 RMK A01 T10901123  RH  077%=      5-min Rain = 0
KPD2 121256Z 01001KT M09/M12 A3024 RMK A01 T10891123  RH  077%=      5-min Rain = 0
KPD2 121257Z 01001KT M09/M12 A3024 RMK A01 T10891123  RH  076%=      5-min Rain = 0
KPD2 121258Z 01001KT M09/M13 A3024 RMK A01 T10901126  RH  075%=      5-min Rain = 0
KPD2 121259Z 00001KT M09/M13 A3024 RMK A01 T10901127  RH  075%=      5-min Rain = 0
KPD2 121300Z 00001KT M09/M13 A3024 RMK A01 T10891125  RH  075%=      5-min Rain = 0
KPD2 121301Z 00001KT M09/M12 A3025 RMK A01 T10881124  RH  075%=      5-min Rain = 0
KPD2 121302Z 00001KT M09/M13 A3025 RMK A01 T10891127  RH  074%=      5-min Rain = 0
KPD2 121303Z 00000KT M09/M13 A3025 RMK A01 T10921130  RH  073%=      5-min Rain = 0
KPD2 121304Z 00001KT M09/M13 A3025 RMK A01 T10931133  RH  073%=      5-min Rain = 0
KPD2 121305Z 00001KT M10/M13 A3025 RMK A01 T10951134  RH  073%=      5-min Rain = 0
KPD2 121306Z 30001KT M10/M14 A3025 RMK A01 T10981135  RH  074%=      5-min Rain = 0
KPD2 121307Z 30001KT M10/M14 A3025 RMK A01 T10991136  RH  074%=      5-min Rain = 0
KPD2 121308Z 30001KT M10/M14 A3025 RMK A01 T11001136  RH  075%=      5-min Rain = 0
KPD2 121309Z 30001KT M10/M14 A3025 RMK A01 T11001136  RH  075%=      5-min Rain = 0
KPD2 121310Z 30001KT M10/M14 A3025 RMK A01 T11011136  RH  076%=      5-min Rain = 0
KPD2 121311Z 29001KT M10/M14 A3025 RMK A01 T11011135  RH  076%=      5-min Rain = 0
KPD2 121312Z 29001KT M10/M13 A3025 RMK A01 T11011134  RH  077%=      5-min Rain = 0
KPD2 121313Z 29001KT M10/M13 A3025 RMK A01 T11021133  RH  078%=      5-min Rain = 0
KPD2 121314Z 29001KT M10/M13 A3025 RMK A01 T11011131  RH  078%=      5-min Rain = 0
KPD2 121315Z 29001KT M10/M13 A3025 RMK A01 T11001129  RH  079%=      5-min Rain = 0
KPD2 121316Z 29001KT M10/M13 A3025 RMK A01 T10991128  RH  079%=      5-min Rain = 0
KPD2 121317Z 29001KT M10/M13 A3025 RMK A01 T10991128  RH  079%=      5-min Rain = 0
KPD2 121318Z 29001KT M10/M13 A3025 RMK A01 T10991128  RH  079%=      5-min Rain = 0
KPD2 121319Z 29001KT M10/M13 A3025 RMK A01 T10991128  RH  079%=      5-min Rain = 0
KPD2 121320Z 29000KT M10/M13 A3025 RMK A01 T10991128  RH  079%=      5-min Rain = 0
KPD2 121321Z 27002KT M10/M13 A3025 RMK A01 T10991129  RH  079%=      5-min Rain = 0
KPD2 121322Z 26002KT M10/M13 A3025 RMK A01 T10991130  RH  078%=      5-min Rain = 0
KPD2 121323Z 27002KT M10/M13 A3025 RMK A01 T10991130  RH  078%=      5-min Rain = 0
KPD2 121324Z 30002KT M10/M13 A3025 RMK A01 T10991129  RH  078%=      5-min Rain = 0
KPD2 121325Z 32002KT M10/M13 A3025 RMK A01 T10981129  RH  079%=      5-min Rain = 0
KPD2 121326Z 34002KT M10/M13 A3025 RMK A01 T10981129  RH  079%=      5-min Rain = 0
KPD2 121327Z 35002KT M10/M13 A3025 RMK A01 T10981129  RH  078%=      5-min Rain = 0
KPD2 121328Z 35002KT M10/M13 A3025 RMK A01 T10991129  RH  078%=      5-min Rain = 0
KPD2 121329Z 33002KT M10/M13 A3025 RMK A01 T10981129  RH  078%=      5-min Rain = 0
KPD2 121330Z 33002KT M10/M13 A3025 RMK A01 T10981129  RH  078%=      5-min Rain = 0
KPD2 121331Z 34002KT M10/M13 A3025 RMK A01 T10981129  RH  078%=      5-min Rain = 0
KPD2 121332Z 34002KT M10/M13 A3025 RMK A01 T10981129  RH  078%=      5-min Rain = 0
KPD2 121333Z 34001KT M10/M13 A3025 RMK A01 T10981129  RH  078%=      5-min Rain = 0
KPD2 121334Z 33001KT M10/M13 A3025 RMK A01 T10971129  RH  078%=      5-min Rain = 0
KPD2 121335Z 32002KT M10/M13 A3025 RMK A01 T10981129  RH  078%=      5-min Rain = 0
KPD2 121336Z 32001KT M10/M13 A3025 RMK A01 T10971129  RH  077%=      5-min Rain = 0
KPD2 121337Z 32001KT M10/M13 A3025 RMK A01 T10971130  RH  077%=      5-min Rain = 0
KPD2 121338Z 32001KT M10/M13 A3025 RMK A01 T10971131  RH  077%=      5-min Rain = 0
KPD2 121339Z 32001KT M10/M13 A3025 RMK A01 T10971130  RH  077%=      5-min Rain = 0
KPD2 121340Z 32002KT M10/M13 A3025 RMK A01 T10971129  RH  078%=      5-min Rain = 0
KPD2 121341Z 32001KT M10/M13 A3025 RMK A01 T10971128  RH  078%=      5-min Rain = 0
KPD2 121342Z 32001KT M10/M13 A3025 RMK A01 T10971129  RH  077%=      5-min Rain = 0
KPD2 121343Z 32001KT M10/M13 A3025 RMK A01 T10971130  RH  077%=      5-min Rain = 0
KPD2 121344Z 32001KT M10/M13 A3025 RMK A01 T10981132  RH  076%=      5-min Rain = 0
KPD2 121345Z 32001KT M10/M13 A3025 RMK A01 T10991134  RH  076%=      5-min Rain = 0
KPD2 121346Z 32001KT M10/M14 A3025 RMK A01 T11001135  RH  076%=      5-min Rain = 0
KPD2 121347Z 32000KT M10/M14 A3026 RMK A01 T11011136  RH  076%=      5-min Rain = 0
KPD2 121348Z 00000KT M10/M14 A3026 RMK A01 T11021136  RH  076%=      5-min Rain = 0
KPD2 121349Z 00000KT M10/M14 A3025 RMK A01 T11021136  RH  076%=      5-min Rain = 0
KPD2 121350Z 00000KT M10/M14 A3025 RMK A01 T11031136  RH  076%=      5-min Rain = 0
KPD2 121351Z 00000KT M10/M14 A3025 RMK A01 T11041137  RH  077%=      5-min Rain = 0
KPD2 121352Z 27001KT M10/M14 A3025 RMK A01 T11041136  RH  077%=      5-min Rain = 0
KPD2 121353Z 28002KT M10/M14 A3025 RMK A01 T11041137  RH  077%=      5-min Rain = 0
KPD2 121354Z 30002KT M11/M14 A3025 RMK A01 T11061138  RH  077%=      5-min Rain = 0
KPD2 121355Z 31002KT M11/M14 A3025 RMK A01 T11071140  RH  077%=      5-min Rain = 0
KPD2 121356Z 31002KT M11/M14 A3025 RMK A01 T11071140  RH  077%=      5-min Rain = 0
KPD2 121357Z 31002KT M11/M14 A3025 RMK A01 T11081139  RH  078%=      5-min Rain = 0
KPD2 121358Z 31001KT M11/M14 A3025 RMK A01 T11081138  RH  079%=      5-min Rain = 0
KPD2 121359Z 31001KT M11/M14 A3025 RMK A01 T11071135  RH  079%=      5-min Rain = 0
KPD2 121400Z 33001KT M10/M13 A3025 RMK A01 T11041132  RH  080%=      5-min Rain = 0
KPD2 121401Z 34001KT M10/M13 A3025 RMK A01 T11021129  RH  081%=      5-min Rain = 0
KPD2 121402Z 34000KT M10/M13 A3025 RMK A01 T11001127  RH  081%=      5-min Rain = 0
KPD2 121403Z 33000KT M10/M13 A3025 RMK A01 T10981126  RH  080%=      5-min Rain = 0
KPD2 121404Z 33001KT M10/M13 A3025 RMK A01 T10971126  RH  079%=      5-min Rain = 0
KPD2 121405Z 32000KT M10/M13 A3025 RMK A01 T10961126  RH  079%=      5-min Rain = 0
KPD2 121406Z 00000KT M10/M13 A3025 RMK A01 T10961126  RH  079%=      5-min Rain = 0
KPD2 121407Z 00000KT M10/M13 A3025 RMK A01 T10951126  RH  078%=      5-min Rain = 0
KPD2 121408Z 00000KT M10/M13 A3025 RMK A01 T10951127  RH  077%=      5-min Rain = 0
KPD2 121409Z 32000KT M09/M13 A3025 RMK A01 T10941128  RH  076%=      5-min Rain = 0
KPD2 121410Z 32001KT M09/M13 A3025 RMK A01 T10941129  RH  076%=      5-min Rain = 0
KPD2 121411Z 33001KT M09/M13 A3025 RMK A01 T10941130  RH  075%=      5-min Rain = 0
KPD2 121412Z 35000KT M10/M13 A3025 RMK A01 T10951131  RH  075%=      5-min Rain = 0
KPD2 121413Z 03000KT M10/M13 A3025 RMK A01 T10951131  RH  075%=      5-min Rain = 0
KPD2 121414Z 00000KT M10/M13 A3025 RMK A01 T10951131  RH  075%=      5-min Rain = 0
KPD2 121415Z 13002KT M10/M13 A3025 RMK A01 T10951132  RH  075%=      5-min Rain = 0
KPD2 121416Z 14003KT M10/M13 A3025 RMK A01 T10961133  RH  075%=      5-min Rain = 0
KPD2 121417Z 14003KT M10/M13 A3025 RMK A01 T10961133  RH  075%=      5-min Rain = 0
KPD2 121418Z 16003KT M10/M13 A3025 RMK A01 T10961133  RH  075%=      5-min Rain = 0
KPD2 121419Z 15003KT M10/M13 A3025 RMK A01 T10961132  RH  075%=      5-min Rain = 0
KPD2 121420Z 13002KT M10/M13 A3025 RMK A01 T10951131  RH  075%=      5-min Rain = 0
KPD2 121421Z 13002KT M09/M13 A3025 RMK A01 T10931129  RH  075%=      5-min Rain = 0
KPD2 121422Z 13001KT M09/M13 A3025 RMK A01 T10921128  RH  075%=      5-min Rain = 0
KPD2 121423Z 13001KT M09/M13 A3026 RMK A01 T10911128  RH  075%=      5-min Rain = 0
KPD2 121424Z 13001KT M09/M13 A3026 RMK A01 T10901127  RH  074%=      5-min Rain = 0
KPD2 121425Z 13001KT M09/M13 A3026 RMK A01 T10891127  RH  074%=      5-min Rain = 0
KPD2 121426Z 13001KT M09/M13 A3026 RMK A01 T10881127  RH  073%=      5-min Rain = 0
KPD2 121427Z 13000KT M09/M13 A3026 RMK A01 T10881128  RH  073%=      5-min Rain = 0
KPD2 121428Z 00001KT M09/M13 A3026 RMK A01 T10881129  RH  072%=      5-min Rain = 0
KPD2 121429Z 00002KT M09/M13 A3026 RMK A01 T10901134  RH  071%=      5-min Rain = 0
KPD2 121430Z 00000KT M09/M14 A3026 RMK A01 T10921135  RH  071%=      5-min Rain = 0
KPD2 121431Z 00000KT M09/M13 A3026 RMK A01 T10921133  RH  072%=      5-min Rain = 0
KPD2 121432Z 00000KT M09/M13 A3026 RMK A01 T10921132  RH  073%=      5-min Rain = 0
KPD2 121433Z 00000KT M09/M13 A3026 RMK A01 T10921131  RH  073%=      5-min Rain = 0
KPD2 121434Z 00000KT M09/M13 A3026 RMK A01 T10921130  RH  073%=      5-min Rain = 0
KPD2 121435Z 00000KT M09/M13 A3026 RMK A01 T10911130  RH  073%=      5-min Rain = 0
KPD2 121436Z 00000KT M09/M13 A3026 RMK A01 T10901129  RH  073%=      5-min Rain = 0
KPD2 121437Z 00000KT M09/M13 A3026 RMK A01 T10901129  RH  073%=      5-min Rain = 0
KPD2 121438Z 00000KT M09/M13 A3026 RMK A01 T10891130  RH  073%=      5-min Rain = 0
KPD2 121439Z 00001KT M09/M13 A3026 RMK A01 T10891129  RH  073%=      5-min Rain = 0
KPD2 121440Z 00001KT M09/M13 A3026 RMK A01 T10871127  RH  073%=      5-min Rain = 0
KPD2 121441Z 00001KT M08/M12 A3025 RMK A01 T10831124  RH  073%=      5-min Rain = 0
KPD2 121442Z 16001KT M08/M12 A3025 RMK A01 T10801122  RH  072%=      5-min Rain = 0
KPD2 121443Z 16001KT M08/M12 A3025 RMK A01 T10781121  RH  071%=      5-min Rain = 0
KPD2 121444Z 16001KT M08/M12 A3025 RMK A01 T10751121  RH  070%=      5-min Rain = 0
KPD2 121445Z 16001KT M07/M12 A3025 RMK A01 T10741121  RH  069%=      5-min Rain = 0
KPD2 121446Z 15002KT M07/M12 A3025 RMK A01 T10721120  RH  069%=      5-min Rain = 0
KPD2 121447Z 13002KT M07/M12 A3025 RMK A01 T10711120  RH  068%=      5-min Rain = 0
KPD2 121448Z 12002KT M07/M12 A3025 RMK A01 T10691120  RH  067%=      5-min Rain = 0
KPD2 121449Z 13001KT M07/M12 A3025 RMK A01 T10671119  RH  067%=      5-min Rain = 0
KPD2 121450Z 13001KT M07/M12 A3025 RMK A01 T10651118  RH  066%=      5-min Rain = 0
KPD2 121451Z 12000KT M06/M12 A3025 RMK A01 T10641117  RH  066%=      5-min Rain = 0
KPD2 121452Z 12001KT M06/M12 A3025 RMK A01 T10631118  RH  065%=      5-min Rain = 0
KPD2 121453Z 08001KT M06/M12 A3025 RMK A01 T10631119  RH  064%=      5-min Rain = 0
KPD2 121454Z 08002KT M06/M12 A3025 RMK A01 T10631119  RH  064%=      5-min Rain = 0
KPD2 121455Z 09003KT M06/M12 A3025 RMK A01 T10631120  RH  064%=      5-min Rain = 0
KPD2 121456Z 11001KT M06/M12 A3025 RMK A01 T10631120  RH  064%=      5-min Rain = 0
KPD2 121457Z 15002KT M06/M12 A3025 RMK A01 T10621118  RH  064%=      5-min Rain = 0
KPD2 121458Z 15002KT M06/M12 A3025 RMK A01 T10601118  RH  064%=      5-min Rain = 0
KPD2 121459Z 16002KT M06/M12 A3025 RMK A01 T10591118  RH  063%=      5-min Rain = 0
KPD2 121500Z 15002KT M06/M12 A3025 RMK A01 T10591118  RH  063%=      5-min Rain = 0
KPD2 121501Z 16001KT M06/M12 A3025 RMK A01 T10591118  RH  063%=      5-min Rain = 0
KPD2 121502Z 15001KT M06/M12 A3026 RMK A01 T10581117  RH  063%=      5-min Rain = 0
KPD2 121503Z 11001KT M06/M12 A3026 RMK A01 T10571117  RH  062%=      5-min Rain = 0
KPD2 121504Z 10001KT M06/M12 A3026 RMK A01 T10561117  RH  062%=      5-min Rain = 0
KPD2 121505Z 10000KT M06/M12 A3026 RMK A01 T10551116  RH  062%=      5-min Rain = 0
KPD2 121506Z 22001KT M06/M12 A3026 RMK A01 T10551117  RH  061%=      5-min Rain = 0
KPD2 121507Z 21002KT M05/M12 A3026 RMK A01 T10541117  RH  061%=      5-min Rain = 0
KPD2 121508Z 19001KT M06/M12 A3026 RMK A01 T10551117  RH  061%=      5-min Rain = 0
KPD2 121509Z 20002KT M05/M12 A3025 RMK A01 T10541117  RH  061%=      5-min Rain = 0
KPD2 121510Z 19001KT M06/M12 A3025 RMK A01 T10551117  RH  062%=      5-min Rain = 0
KPD2 121511Z 22001KT M06/M12 A3026 RMK A01 T10551116  RH  062%=      5-min Rain = 0
KPD2 121512Z 22000KT M06/M12 A3026 RMK A01 T10551115  RH  063%=      5-min Rain = 0
KPD2 121513Z 06002KT M06/M12 A3026 RMK A01 T10551115  RH  063%=      5-min Rain = 0
KPD2 121514Z 06003KT M06/M12 A3026 RMK A01 T10551116  RH  062%=      5-min Rain = 0
KPD2 121515Z 07002KT M06/M12 A3026 RMK A01 T10551116  RH  062%=      5-min Rain = 0
KPD2 121516Z 32003KT M05/M12 A3026 RMK A01 T10541115  RH  062%=      5-min Rain = 0
KPD2 121517Z 30003KT M05/M11 A3026 RMK A01 T10531114  RH  062%=      5-min Rain = 0
KPD2 121518Z 26002KT M05/M11 A3026 RMK A01 T10531114  RH  062%=      5-min Rain = 0
KPD2 121519Z 21002KT M05/M11 A3026 RMK A01 T10521113  RH  062%=      5-min Rain = 0
KPD2 121520Z 19003KT M05/M11 A3025 RMK A01 T10511114  RH  061%=      5-min Rain = 0
KPD2 121521Z 19001KT M05/M12 A3025 RMK A01 T10521115  RH  061%=      5-min Rain = 0
KPD2 121522Z 21002KT M05/M12 A3025 RMK A01 T10521115  RH  061%=      5-min Rain = 0
KPD2 121523Z 24003KT M05/M11 A3025 RMK A01 T10521114  RH  062%=      5-min Rain = 0
KPD2 121524Z 24002KT M05/M11 A3025 RMK A01 T10511112  RH  062%=      5-min Rain = 0
KPD2 121525Z 21001KT M05/M11 A3025 RMK A01 T10501111  RH  062%=      5-min Rain = 0
KPD2 121526Z 05000KT M05/M11 A3025 RMK A01 T10481111  RH  062%=      5-min Rain = 0
KPD2 121527Z 01002KT M05/M11 A3025 RMK A01 T10481110  RH  062%=      5-min Rain = 0
KPD2 121528Z 02001KT M05/M11 A3025 RMK A01 T10461109  RH  061%=      5-min Rain = 0
KPD2 121529Z 35001KT M05/M11 A3025 RMK A01 T10451109  RH  061%=      5-min Rain = 0
KPD2 121530Z 01001KT M04/M11 A3025 RMK A01 T10431108  RH  061%=      5-min Rain = 0
KPD2 121531Z 00001KT M04/M11 A3025 RMK A01 T10421108  RH  060%=      5-min Rain = 0
KPD2 121532Z 35001KT M04/M11 A3025 RMK A01 T10401108  RH  059%=      5-min Rain = 0
KPD2 121533Z 35001KT M04/M11 A3025 RMK A01 T10391108  RH  058%=      5-min Rain = 0
KPD2 121534Z 33000KT M04/M11 A3025 RMK A01 T10381109  RH  057%=      5-min Rain = 0
KPD2 121535Z 20002KT M04/M11 A3025 RMK A01 T10371110  RH  057%=      5-min Rain = 0
KPD2 121536Z 19003KT M04/M11 A3025 RMK A01 T10361110  RH  057%=      5-min Rain = 0
KPD2 121537Z 18004KT M04/M11 A3025 RMK A01 T10351109  RH  057%=      5-min Rain = 0
KPD2 121538Z 18005KT M03/M11 A3025 RMK A01 T10341109  RH  056%=      5-min Rain = 0
KPD2 121539Z 18003KT M03/M11 A3025 RMK A01 T10341109  RH  056%=      5-min Rain = 0
KPD2 121540Z 18003KT M03/M11 A3025 RMK A01 T10341109  RH  056%=      5-min Rain = 0
KPD2 121541Z 16003KT M03/M11 A3025 RMK A01 T10321107  RH  056%=      5-min Rain = 0
KPD2 121542Z 14003KT M03/M11 A3025 RMK A01 T10301106  RH  056%=      5-min Rain = 0
KPD2 121543Z 14002KT M03/M11 A3025 RMK A01 T10271106  RH  055%=      5-min Rain = 0
KPD2 121544Z 11002KT M02/M10 A3025 RMK A01 T10241104  RH  054%=      5-min Rain = 0
KPD2 121545Z 10004KT M02/M10 A3025 RMK A01 T10201103  RH  053%=      5-min Rain = 0
KPD2 121546Z 08004KT M02/M10 A3025 RMK A01 T10171102  RH  052%=      5-min Rain = 0
KPD2 121547Z 08006KT M02/M10 A3025 RMK A01 T10151102  RH  052%=      5-min Rain = 0
KPD2 121548Z 09005KT M01/M10 A3024 RMK A01 T10131101  RH  051%=      5-min Rain = 0
KPD2 121549Z 11006KT M01/M10 A3024 RMK A01 T10091098  RH  051%=      5-min Rain = 0
KPD2 121550Z 11005KT M01/M10 A3025 RMK A01 T10051096  RH  050%=      5-min Rain = 0
KPD2 121551Z 16006KT M00/M10 A3025 RMK A01 T10011096  RH  049%=      5-min Rain = 0
KPD2 121552Z 14005KT 00/M10 A3025 RMK A01 T00021096  RH  048%=      5-min Rain = 0
KPD2 121553Z 12005KT 00/M10 A3025 RMK A01 T00031097  RH  047%=      5-min Rain = 0
KPD2 121554Z 12006KT 00/M10 A3024 RMK A01 T00041097  RH  047%=      5-min Rain = 0
KPD2 121555Z 12006KT 00/M10 A3025 RMK A01 T00041098  RH  046%=      5-min Rain = 0
KPD2 121556Z 12006KT 01/M10 A3025 RMK A01 T00051098  RH  046%=      5-min Rain = 0
KPD2 121557Z 10006KT 00/M10 A3025 RMK A01 T00041099  RH  046%=      5-min Rain = 0
KPD2 121558Z 10006KT 00/M10 A3024 RMK A01 T00031100  RH  046%=      5-min Rain = 0
KPD2 121559Z 11007KT 00/M10 A3024 RMK A01 T00031100  RH  046%=      5-min Rain = 0
KPD2 121600Z 10007KT 00/M10 A3024 RMK A01 T00021100  RH  046%=      5-min Rain = 0
KPD2 121601Z 11005KT 00/M10 A3024 RMK A01 T00011101  RH  046%=      5-min Rain = 0
KPD2 121602Z 10006KT 00/M10 A3024 RMK A01 T00011100  RH  047%=      5-min Rain = 0
KPD2 121603Z 13007KT 00/M10 A3024 RMK A01 T00021099  RH  047%=      5-min Rain = 0
KPD2 121604Z 16005KT 00/M10 A3024 RMK A01 T00041098  RH  046%=      5-min Rain = 0
KPD2 121605Z 13005KT 01/M10 A3024 RMK A01 T00061097  RH  046%=      5-min Rain = 0
KPD2 121606Z 13004KT 01/M10 A3024 RMK A01 T00071097  RH  046%=      5-min Rain = 0
KPD2 121607Z 13003KT 01/M10 A3024 RMK A01 T00091095  RH  046%=      5-min Rain = 0
KPD2 121608Z 12006KT 01/M10 A3024 RMK A01 T00111095  RH  045%=      5-min Rain = 0
KPD2 121609Z 12006KT 01/M10 A3024 RMK A01 T00131095  RH  045%=      5-min Rain = 0
KPD2 121610Z 13007KT 01/M10 A3024 RMK A01 T00141095  RH  044%=      5-min Rain = 0
KPD2 121611Z 13008KT 01/M10 A3024 RMK A01 T00141095  RH  044%=      5-min Rain = 0
KPD2 121612Z 14006KT 01/M10 A3024 RMK A01 T00141096  RH  044%=      5-min Rain = 0
KPD2 121613Z 13007KT 01/M10 A3024 RMK A01 T00141095  RH  044%=      5-min Rain = 0
KPD2 121614Z 13005KT 01/M10 A3024 RMK A01 T00141095  RH  044%=      5-min Rain = 0
KPD2 121615Z 13006KT 02/M09 A3024 RMK A01 T00161094  RH  044%=      5-min Rain = 0
KPD2 121616Z 12007KT 02/M09 A3024 RMK A01 T00171094  RH  044%=      5-min Rain = 0
KPD2 121617Z 13006KT 02/M09 A3024 RMK A01 T00181094  RH  043%=      5-min Rain = 0
KPD2 121618Z 12006KT 02/M09 A3024 RMK A01 T00191094  RH  043%=      5-min Rain = 0
KPD2 121619Z 15005KT 02/M09 A3024 RMK A01 T00191093  RH  043%=      5-min Rain = 0
KPD2 121620Z 15005KT 02/M09 A3024 RMK A01 T00211093  RH  043%=      5-min Rain = 0
KPD2 121621Z 13006KT 02/M09 A3024 RMK A01 T00231092  RH  043%=      5-min Rain = 0
KPD2 121622Z 14006KT 02/M09 A3024 RMK A01 T00241093  RH  042%=      5-min Rain = 0
KPD2 121623Z 16004KT 03/M09 A3024 RMK A01 T00251091  RH  042%=      5-min Rain = 0
KPD2 121624Z 14005KT 03/M09 A3024 RMK A01 T00271092  RH  041%=      5-min Rain = 0
KPD2 121625Z 13007KT 03/M09 A3024 RMK A01 T00281091  RH  041%=      5-min Rain = 0
KPD2 121626Z 14006KT 03/M09 A3024 RMK A01 T00301091  RH  041%=      5-min Rain = 0
KPD2 121627Z 12007KT 03/M09 A3024 RMK A01 T00321090  RH  040%=      5-min Rain = 0
KPD2 121628Z 13010KT 03/M09 A3024 RMK A01 T00341090  RH  040%=      5-min Rain = 0
KPD2 121629Z 16006KT 03/M09 A3024 RMK A01 T00341091  RH  039%=      5-min Rain = 0
KPD2 121630Z 14006KT 03/M09 A3024 RMK A01 T00341092  RH  039%=      5-min Rain = 0
KPD2 121631Z 12008G13KT 03/M09 A3024 RMK A01 T00341091  RH  039%=      5-min Rain = 0
KPD2 121632Z 14007KT 03/M09 A3024 RMK A01 T00341092  RH  039%=      5-min Rain = 0
KPD2 121633Z 14004KT 03/M09 A3024 RMK A01 T00341092  RH  039%=      5-min Rain = 0
KPD2 121634Z 13006KT 03/M09 A3024 RMK A01 T00341091  RH  039%=      5-min Rain = 0
KPD2 121635Z 12006KT 04/M09 A3024 RMK A01 T00361091  RH  039%=      5-min Rain = 0
KPD2 121636Z 12006KT 04/M09 A3024 RMK A01 T00371090  RH  039%=      5-min Rain = 0
KPD2 121637Z 15006KT 04/M09 A3024 RMK A01 T00381091  RH  039%=      5-min Rain = 0
KPD2 121638Z 13004KT 04/M09 A3024 RMK A01 T00371091  RH  038%=      5-min Rain = 0
KPD2 121639Z 13005KT 04/M09 A3024 RMK A01 T00371091  RH  039%=      5-min Rain = 0
KPD2 121640Z 12005KT 04/M09 A3024 RMK A01 T00381090  RH  038%=      5-min Rain = 0
KPD2 121641Z 12004KT 04/M09 A3024 RMK A01 T00391090  RH  038%=      5-min Rain = 0
KPD2 121642Z 15005KT 04/M09 A3024 RMK A01 T00411089  RH  038%=      5-min Rain = 0
KPD2 121643Z 14005KT 04/M09 A3024 RMK A01 T00431089  RH  038%=      5-min Rain = 0
KPD2 121644Z 14007KT 04/M09 A3024 RMK A01 T00441089  RH  037%=      5-min Rain = 0
KPD2 121645Z 14007KT 05/M09 A3024 RMK A01 T00451090  RH  037%=      5-min Rain = 0
KPD2 121646Z 15007KT 04/M09 A3024 RMK A01 T00431091  RH  037%=      5-min Rain = 0
KPD2 121647Z 13007KT 04/M09 A3024 RMK A01 T00421092  RH  037%=      5-min Rain = 0
KPD2 121648Z 12005KT 04/M09 A3024 RMK A01 T00431090  RH  037%=      5-min Rain = 0
KPD2 121649Z 18003KT 04/M09 A3024 RMK A01 T00441090  RH  037%=      5-min Rain = 0
KPD2 121650Z 14002G7KT 04/M09 A3024 RMK A01 T00441091  RH  037%=      5-min Rain = 0
KPD2 121651Z 13008KT 05/M09 A3023 RMK A01 T00461089  RH  037%=      5-min Rain = 0
KPD2 121652Z 14009KT 05/M09 A3023 RMK A01 T00491089  RH  036%=      5-min Rain = 0
KPD2 121653Z 16009KT 05/M09 A3023 RMK A01 T00501090  RH  036%=      5-min Rain = 0
KPD2 121654Z 17008KT 05/M09 A3023 RMK A01 T00501092  RH  035%=      5-min Rain = 0
KPD2 121655Z 17005KT 05/M09 A3023 RMK A01 T00491093  RH  035%=      5-min Rain = 0
KPD2 121656Z 16006KT 05/M09 A3023 RMK A01 T00481094  RH  035%=      5-min Rain = 0
KPD2 121657Z 16010KT 05/M09 A3023 RMK A01 T00491093  RH  035%=      5-min Rain = 0
KPD2 121658Z 17004KT 05/M09 A3023 RMK A01 T00501094  RH  034%=      5-min Rain = 0
KPD2 121659Z 17005KT 05/M09 A3023 RMK A01 T00511094  RH  034%=      5-min Rain = 0
KPD2 121700Z 16009G15KT 05/M09 A3023 RMK A01 T00531094  RH  034%=      5-min Rain = 0
KPD2 121701Z 16006KT 05/M10 A3023 RMK A01 T00531095  RH  033%=      5-min Rain = 0
KPD2 121702Z 14007KT 05/M10 A3023 RMK A01 T00521095  RH  034%=      5-min Rain = 0
KPD2 121703Z 12008KT 05/M09 A3023 RMK A01 T00531094  RH  034%=      5-min Rain = 0
KPD2 121704Z 13012KT 05/M10 A3022 RMK A01 T00541095  RH  033%=      5-min Rain = 0
KPD2 121705Z 18010KT 06/M10 A3023 RMK A01 T00561097  RH  032%=      5-min Rain = 0
KPD2 121706Z 20006KT 06/M10 A3022 RMK A01 T00551098  RH  032%=      5-min Rain = 0
KPD2 121707Z 17008KT 06/M10 A3022 RMK A01 T00551099  RH  032%=      5-min Rain = 0
KPD2 121708Z 18009G14KT 06/M10 A3022 RMK A01 T00561098  RH  032%=      5-min Rain = 0
KPD2 121709Z 16007KT 06/M10 A3022 RMK A01 T00551099  RH  032%=      5-min Rain = 0
KPD2 121710Z 14010G15KT 06/M10 A3022 RMK A01 T00551098  RH  032%=      5-min Rain = 0
KPD2 121711Z 16011KT 06/M10 A3022 RMK A01 T00551099  RH  032%=      5-min Rain = 0
KPD2 121712Z 19008KT 06/M10 A3022 RMK A01 T00551101  RH  032%=      5-min Rain = 0
KPD2 121713Z 17006KT 05/M10 A3022 RMK A01 T00531102  RH  032%=      5-min Rain = 0
KPD2 121714Z 16009KT 05/M10 A3022 RMK A01 T00531100  RH  032%=      5-min Rain = 0
KPD2 121715Z 13009KT 06/M10 A3022 RMK A01 T00551099  RH  032%=      5-min Rain = 0
KPD2 121716Z 13013KT 06/M10 A3022 RMK A01 T00591098  RH  031%=      5-min Rain = 0
KPD2 121717Z 16012KT 06/M10 A3022 RMK A01 T00601100  RH  031%=      5-min Rain = 0
KPD2 121718Z 16007KT 06/M10 A3022 RMK A01 T00591101  RH  030%=      5-min Rain = 0
KPD2 121719Z 14007G13KT 06/M10 A3022 RMK A01 T00581102  RH  031%=      5-min Rain = 0
KPD2 121720Z 17010KT 06/M10 A3022 RMK A01 T00601099  RH  031%=      5-min Rain = 0
KPD2 121721Z 16007KT 06/M10 A3022 RMK A01 T00611101  RH  030%=      5-min Rain = 0
KPD2 121722Z 17004G9KT 06/M10 A3021 RMK A01 T00601102  RH  030%=      5-min Rain = 0
KPD2 121723Z 17004KT 06/M10 A3021 RMK A01 T00601102  RH  030%=      5-min Rain = 0
KPD2 121724Z 17005KT 06/M10 A3021 RMK A01 T00611101  RH  030%=      5-min Rain = 0
KPD2 121725Z 16009G14KT 06/M10 A3021 RMK A01 T00631099  RH  030%=      5-min Rain = 0
KPD2 121726Z 15008G14KT 06/M10 A3021 RMK A01 T00631102  RH  029%=      5-min Rain = 0
KPD2 121727Z 13007KT 06/M10 A3021 RMK A01 T00601104  RH  030%=      5-min Rain = 0
KPD2 121728Z 16007KT 06/M10 A3021 RMK A01 T00601102  RH  030%=      5-min Rain = 0
KPD2 121729Z 15005KT 06/M10 A3021 RMK A01 T00621101  RH  030%=      5-min Rain = 0
KPD2 121730Z 14007KT 06/M10 A3021 RMK A01 T00641102  RH  029%=      5-min Rain = 0
KPD2 121731Z 14009KT 07/M10 A3021 RMK A01 T00651101  RH  029%=      5-min Rain = 0
KPD2 121732Z 15011KT 07/M10 A302 RMK A01 T00671101  RH  029%=      5-min Rain = 0
KPD2 121733Z 16008KT 07/M10 A302 RMK A01 T00661102  RH  029%=      5-min Rain = 0
KPD2 121734Z 15008G14KT 06/M10 A302 RMK A01 T00641103  RH  029%=      5-min Rain = 0
KPD2 121735Z 18009KT 07/M10 A302 RMK A01 T00661102  RH  029%=      5-min Rain = 0
KPD2 121736Z 19009KT 07/M10 A302 RMK A01 T00651104  RH  029%=      5-min Rain = 0
KPD2 121737Z 18007KT 06/M10 A302 RMK A01 T00631104  RH  029%=      5-min Rain = 0
KPD2 121738Z 14009KT 06/M10 A302 RMK A01 T00641102  RH  029%=      5-min Rain = 0
KPD2 121739Z 14010G15KT 07/M10 A302 RMK A01 T00681099  RH  029%=      5-min Rain = 0
KPD2 121740Z 15009KT 07/M10 A302 RMK A01 T00691101  RH  028%=      5-min Rain = 0
KPD2 121741Z 17011KT 07/M10 A302 RMK A01 T00691102  RH  028%=      5-min Rain = 0
KPD2 121742Z 17008KT 07/M10 A3019 RMK A01 T00671102  RH  029%=      5-min Rain = 0
KPD2 121743Z 17008KT 07/M10 A3019 RMK A01 T00681102  RH  029%=      5-min Rain = 0
KPD2 121744Z 16011KT 07/M10 A3019 RMK A01 T00671103  RH  029%=      5-min Rain = 0
KPD2 121745Z 18009G15KT 07/M10 A3019 RMK A01 T00671102  RH  029%=      5-min Rain = 0
KPD2 121746Z 15010KT 07/M10 A3019 RMK A01 T00661103  RH  029%=      5-min Rain = 0
KPD2 121747Z 14010KT 07/M10 A3019 RMK A01 T00681100  RH  029%=      5-min Rain = 0
KPD2 121748Z 13009KT 07/M10 A3019 RMK A01 T00711100  RH  029%=      5-min Rain = 0
KPD2 121749Z 15010G15KT 07/M10 A3019 RMK A01 T00721100  RH  028%=      5-min Rain = 0
KPD2 121750Z 15012G17KT 07/M10 A3019 RMK A01 T00731100  RH  028%=      5-min Rain = 0
KPD2 121751Z 15008G13KT 07/M10 A3019 RMK A01 T00721102  RH  028%=      5-min Rain = 0
KPD2 121752Z 15009KT 07/M10 A3019 RMK A01 T00711102  RH  028%=      5-min Rain = 0
KPD2 121753Z 14011G16KT 07/M10 A3019 RMK A01 T00711102  RH  028%=      5-min Rain = 0
KPD2 121754Z 15009KT 07/M10 A3019 RMK A01 T00721101  RH  028%=      5-min Rain = 0
KPD2 121755Z 14009KT 07/M10 A3019 RMK A01 T00741101  RH  028%=      5-min Rain = 0
KPD2 121756Z 15008KT 08/M10 A3018 RMK A01 T00751101  RH  027%=      5-min Rain = 0
KPD2 121757Z 15009KT 08/M10 A3018 RMK A01 T00771101  RH  027%=      5-min Rain = 0
KPD2 121758Z 16008KT 08/M10 A3019 RMK A01 T00781101  RH  027%=      5-min Rain = 0
KPD2 121759Z 16007KT 08/M10 A3018 RMK A01 T00791101  RH  027%=      5-min Rain = 0
KPD2 121800Z 21005KT 08/M10 A3018 RMK A01 T00791103  RH  026%=      5-min Rain = 0
KPD2 121801Z 19005G12KT 08/M11 A3018 RMK A01 T00781106  RH  026%=      5-min Rain = 0
KPD2 121802Z 21008KT 08/M11 A3018 RMK A01 T00761107  RH  026%=      5-min Rain = 0
KPD2 121803Z 22009G17KT 08/M11 A3018 RMK A01 T00771106  RH  026%=      5-min Rain = 0
KPD2 121804Z 19008KT 08/M11 A3018 RMK A01 T00771107  RH  026%=      5-min Rain = 0
KPD2 121805Z 18007KT 08/M11 A3018 RMK A01 T00761107  RH  026%=      5-min Rain = 0
KPD2 121806Z 15009G14KT 08/M11 A3018 RMK A01 T00751107  RH  026%=      5-min Rain = 0
KPD2 121807Z 16009KT 08/M11 A3018 RMK A01 T00771106  RH  026%=      5-min Rain = 0
KPD2 121808Z 18006KT 08/M11 A3018 RMK A01 T00781106  RH  026%=      5-min Rain = 0
KPD2 121809Z 16008KT 08/M11 A3018 RMK A01 T00791107  RH  026%=      5-min Rain = 0
KPD2 121810Z 16013G18KT 08/M11 A3018 RMK A01 T00791107  RH  025%=      5-min Rain = 0
KPD2 121811Z 15010KT 08/M11 A3017 RMK A01 T00791107  RH  025%=      5-min Rain = 0
KPD2 121812Z 15008KT 08/M11 A3017 RMK A01 T00791108  RH  025%=      5-min Rain = 0
KPD2 121813Z 13009G15KT 08/M11 A3017 RMK A01 T00791107  RH  025%=      5-min Rain = 0
KPD2 121814Z 14010KT 08/M11 A3017 RMK A01 T00811107  RH  025%=      5-min Rain = 0
KPD2 121815Z 14011KT 08/M11 A3017 RMK A01 T00811108  RH  025%=      5-min Rain = 0
KPD2 121816Z 15010KT 08/M11 A3017 RMK A01 T00811107  RH  025%=      5-min Rain = 0
KPD2 121817Z 18011G17KT 08/M11 A3017 RMK A01 T00821106  RH  025%=      5-min Rain = 0
KPD2 121818Z 16007KT 08/M11 A3016 RMK A01 T00811108  RH  025%=      5-min Rain = 0
KPD2 121819Z 17006KT 08/M11 A3016 RMK A01 T00801107  RH  025%=      5-min Rain = 0
KPD2 121820Z 18006KT 08/M11 A3017 RMK A01 T00811106  RH  025%=      5-min Rain = 0
KPD2 121821Z 15009G14KT 08/M11 A3016 RMK A01 T00831106  RH  025%=      5-min Rain = 0
KPD2 121822Z 14008G14KT 08/M11 A3016 RMK A01 T00821107  RH  025%=      5-min Rain = 0
KPD2 121823Z 15014KT 08/M11 A3016 RMK A01 T00811107  RH  025%=      5-min Rain = 0
KPD2 121824Z 17011KT 08/M11 A3016 RMK A01 T00801107  RH  025%=      5-min Rain = 0
KPD2 121825Z 17006KT 08/M11 A3016 RMK A01 T00781107  RH  026%=      5-min Rain = 0
KPD2 121826Z 15009KT 08/M11 A3016 RMK A01 T00801105  RH  026%=      5-min Rain = 0
KPD2 121827Z 15010KT 08/M11 A3016 RMK A01 T00811105  RH  026%=      5-min Rain = 0
KPD2 121828Z 18008G15KT 08/M11 A3016 RMK A01 T00821105  RH  025%=      5-min Rain = 0
KPD2 121829Z 16005KT 08/M11 A3016 RMK A01 T00811106  RH  025%=      5-min Rain = 0
KPD2 121830Z 14005KT 08/M11 A3016 RMK A01 T00801105  RH  026%=      5-min Rain = 0
KPD2 121831Z 18005KT 08/M10 A3016 RMK A01 T00821103  RH  026%=      5-min Rain = 0
KPD2 121832Z 17007KT 09/M10 A3015 RMK A01 T00851103  RH  025%=      5-min Rain = 0
KPD2 121833Z 18008G13KT 09/M10 A3015 RMK A01 T00851103  RH  025%=      5-min Rain = 0
KPD2 121834Z 16010KT 09/M10 A3016 RMK A01 T00861103  RH  025%=      5-min Rain = 0
KPD2 121835Z 15006KT 09/M10 A3015 RMK A01 T00861103  RH  025%=      5-min Rain = 0
KPD2 121836Z 18004G9KT 09/M10 A3015 RMK A01 T00861103  RH  025%=      5-min Rain = 0
KPD2 121837Z 21007G12KT 09/M10 A3015 RMK A01 T00861102  RH  025%=      5-min Rain = 0
KPD2 121838Z 15004KT 09/M10 A3015 RMK A01 T00871102  RH  025%=      5-min Rain = 0
KPD2 121839Z 15012G17KT 09/M10 A3015 RMK A01 T00871101  RH  025%=      5-min Rain = 0
KPD2 121840Z 18009KT 09/M10 A3015 RMK A01 T00881101  RH  025%=      5-min Rain = 0
KPD2 121841Z 17007KT 09/M10 A3015 RMK A01 T00881102  RH  025%=      5-min Rain = 0
KPD2 121842Z 20003KT 09/M10 A3015 RMK A01 T00881101  RH  025%=      5-min Rain = 0
KPD2 121843Z 18005KT 09/M10 A3015 RMK A01 T00881100  RH  025%=      5-min Rain = 0
KPD2 121844Z 15007KT 09/M10 A3015 RMK A01 T00901099  RH  025%=      5-min Rain = 0
KPD2 121845Z 17007KT 09/M10 A3015 RMK A01 T00911099  RH  025%=      5-min Rain = 0
KPD2 121846Z 21005G11KT 09/M10 A3014 RMK A01 T00911100  RH  025%=      5-min Rain = 0
KPD2 121847Z 18007KT 09/M10 A3014 RMK A01 T00901099  RH  025%=      5-min Rain = 0
KPD2 121848Z 15008KT 09/M10 A3014 RMK A01 T00911098  RH  025%=      5-min Rain = 0
KPD2 121849Z 14012KT 09/M10 A3014 RMK A01 T00931098  RH  025%=      5-min Rain = 0
KPD2 121850Z 17011KT 09/M10 A3014 RMK A01 T00911101  RH  025%=      5-min Rain = 0
KPD2 121851Z 15011G17KT 09/M10 A3014 RMK A01 T00881101  RH  025%=      5-min Rain = 0
KPD2 121852Z 16012KT 09/M10 A3014 RMK A01 T00861101  RH  025%=      5-min Rain = 0
KPD2 121853Z 17014KT 09/M10 A3014 RMK A01 T00851100  RH  026%=      5-min Rain = 0
KPD2 121854Z 15010KT 09/M10 A3014 RMK A01 T00861101  RH  026%=      5-min Rain = 0
KPD2 121855Z 21009G14KT 09/M10 A3014 RMK A01 T00861099  RH  026%=      5-min Rain = 0
KPD2 121856Z 23010G16KT 09/M10 A3014 RMK A01 T00881099  RH  026%=      5-min Rain = 0
KPD2 121857Z 21005KT 09/M10 A3014 RMK A01 T00881100  RH  025%=      5-min Rain = 0
KPD2 121858Z 22004KT 09/M10 A3014 RMK A01 T00891098  RH  026%=      5-min Rain = 0
KPD2 121859Z 12006KT 09/M10 A3014 RMK A01 T00931095  RH  025%=      5-min Rain = 0
KPD2 121900Z 14004KT 10/M10 A3014 RMK A01 T00951097  RH  025%=      5-min Rain = 0
KPD2 121901Z 15007G13KT 10/M10 A3014 RMK A01 T00961097  RH  025%=      5-min Rain = 0
KPD2 121902Z 14011G16KT 10/M10 A3013 RMK A01 T00971098  RH  024%=      5-min Rain = 0
KPD2 121903Z 15011G18KT 10/M10 A3013 RMK A01 T00961098  RH  024%=      5-min Rain = 0
KPD2 121904Z 14012G17KT 10/M10 A3013 RMK A01 T00961098  RH  024%=      5-min Rain = 0
KPD2 121905Z 14014KT 10/M10 A3013 RMK A01 T00951099  RH  024%=      5-min Rain = 0
KPD2 121906Z 15013KT 09/M10 A3013 RMK A01 T00941099  RH  025%=      5-min Rain = 0
KPD2 121907Z 17010G15KT 09/M10 A3013 RMK A01 T00931099  RH  025%=      5-min Rain = 0
KPD2 121908Z 15009KT 09/M10 A3013 RMK A01 T00921099  RH  025%=      5-min Rain = 0
KPD2 121909Z 15009KT 09/M10 A3013 RMK A01 T00921098  RH  025%=      5-min Rain = 0
KPD2 121910Z 19006G12KT 09/M10 A3013 RMK A01 T00931098  RH  025%=      5-min Rain = 0
KPD2 121911Z 21005KT 10/M10 A3013 RMK A01 T00961096  RH  025%=      5-min Rain = 0
KPD2 121912Z 23008G13KT 10/M10 A3013 RMK A01 T00971096  RH  025%=      5-min Rain = 0
KPD2 121913Z 22006G11KT 10/M10 A3013 RMK A01 T00971096  RH  025%=      5-min Rain = 0
KPD2 121914Z 21013G18KT 10/M10 A3013 RMK A01 T00961097  RH  025%=      5-min Rain = 0
KPD2 121915Z 18009G16KT 09/M10 A3013 RMK A01 T00941098  RH  025%=      5-min Rain = 0
KPD2 121916Z 21005G12KT 09/M10 A3013 RMK A01 T00931097  RH  025%=      5-min Rain = 0
KPD2 121917Z 17011KT 09/M10 A3013 RMK A01 T00941096  RH  025%=      5-min Rain = 0
KPD2 121918Z 15012KT 09/M10 A3013 RMK A01 T00941096  RH  025%=      5-min Rain = 0
KPD2 121919Z 14013KT 09/M10 A3013 RMK A01 T00941096  RH  025%=      5-min Rain = 0
KPD2 121920Z 17011G16KT 09/M10 A3013 RMK A01 T00941096  RH  025%=      5-min Rain = 0
KPD2 121921Z 15012KT 09/M10 A3013 RMK A01 T00931097  RH  025%=      5-min Rain = 0
KPD2 121922Z 17012KT 09/M10 A3013 RMK A01 T00911097  RH  025%=      5-min Rain = 0
KPD2 121923Z 18013G20KT 09/M10 A3013 RMK A01 T00911097  RH  025%=      5-min Rain = 0
KPD2 121924Z 17011G17KT 09/M10 A3013 RMK A01 T00901097  RH  026%=      5-min Rain = 0
KPD2 121925Z 15007KT 09/M10 A3013 RMK A01 T00901096  RH  026%=      5-min Rain = 0
KPD2 121926Z 15010KT 09/M10 A3013 RMK A01 T00901095  RH  026%=      5-min Rain = 0
KPD2 121927Z 16007KT 09/M09 A3013 RMK A01 T00931094  RH  026%=      5-min Rain = 0
KPD2 121928Z 19010KT 10/M09 A3013 RMK A01 T00951094  RH  025%=      5-min Rain = 0
KPD2 121929Z 20008KT 10/M09 A3013 RMK A01 T00961093  RH  025%=      5-min Rain = 0
KPD2 121930Z 21006KT 10/M09 A3013 RMK A01 T00961094  RH  025%=      5-min Rain = 0
KPD2 121931Z 17011KT 10/M09 A3013 RMK A01 T00961094  RH  025%=      5-min Rain = 0
KPD2 121932Z 17007KT 10/M09 A3013 RMK A01 T00961094  RH  025%=      5-min Rain = 0
KPD2 121933Z 21004KT 10/M10 A3013 RMK A01 T00951095  RH  025%=      5-min Rain = 0
KPD2 121934Z 18005KT 10/M10 A3013 RMK A01 T00951095  RH  025%=      5-min Rain = 0
KPD2 121935Z 18006G11KT 10/M09 A3013 RMK A01 T00961094  RH  025%=      5-min Rain = 0
KPD2 121936Z 20006KT 10/M09 A3013 RMK A01 T00971094  RH  025%=      5-min Rain = 0
KPD2 121937Z 24009KT 10/M09 A3012 RMK A01 T00971094  RH  025%=      5-min Rain = 0
KPD2 121938Z 23007G13KT 10/M09 A3012 RMK A01 T00971094  RH  025%=      5-min Rain = 0
KPD2 121939Z 21009KT 10/M09 A3012 RMK A01 T01001092  RH  025%=      5-min Rain = 0
KPD2 121940Z 20008KT 10/M09 A3012 RMK A01 T01001093  RH  025%=      5-min Rain = 0
KPD2 121941Z 17006KT 10/M09 A3012 RMK A01 T01001094  RH  025%=      5-min Rain = 0
KPD2 121942Z 18007G17KT 10/M09 A3012 RMK A01 T00991094  RH  025%=      5-min Rain = 0
KPD2 121943Z 15010G16KT 10/M09 A3012 RMK A01 T01001093  RH  025%=      5-min Rain = 0
KPD2 121944Z 19007KT 10/M10 A3012 RMK A01 T00981095  RH  025%=      5-min Rain = 0
KPD2 121945Z 21009KT 10/M09 A3012 RMK A01 T00991093  RH  025%=      5-min Rain = 0
KPD2 121946Z 20006KT 10/M09 A3012 RMK A01 T00991094  RH  025%=      5-min Rain = 0
KPD2 121947Z 23005KT 10/M10 A3012 RMK A01 T00971096  RH  025%=      5-min Rain = 0
KPD2 121948Z 20005KT 10/M10 A3011 RMK A01 T00961096  RH  025%=      5-min Rain = 0
KPD2 121949Z 18009KT 10/M09 A3012 RMK A01 T00961094  RH  025%=      5-min Rain = 0
KPD2 121950Z 19010KT 10/M09 A3012 RMK A01 T00981093  RH  025%=      5-min Rain = 0
KPD2 121951Z 20006KT 10/M09 A3012 RMK A01 T01011092  RH  025%=      5-min Rain = 0
KPD2 121952Z 19006KT 10/M09 A3012 RMK A01 T01021093  RH  024%=      5-min Rain = 0
KPD2 121953Z 18007KT 10/M10 A3012 RMK A01 T01011095  RH  024%=      5-min Rain = 0
KPD2 121954Z 21006KT 10/M10 A3012 RMK A01 T01001095  RH  024%=      5-min Rain = 0
KPD2 121955Z 20007G12KT 10/M10 A3012 RMK A01 T01001095  RH  024%=      5-min Rain = 0
KPD2 121956Z 16008KT 10/M10 A3012 RMK A01 T01011095  RH  024%=      5-min Rain = 0
KPD2 121957Z 15008KT 10/M10 A3011 RMK A01 T00991097  RH  024%=      5-min Rain = 0
KPD2 121958Z 11006KT 10/M10 A3011 RMK A01 T00981096  RH  024%=      5-min Rain = 0
KPD2 121959Z 15008KT 10/M09 A3011 RMK A01 T00981094  RH  025%=      5-min Rain = 0
KPD2 122000Z 18008KT 10/M09 A3011 RMK A01 T01001094  RH  024%=      5-min Rain = 0
KPD2 122001Z 15008KT 10/M09 A3011 RMK A01 T01021094  RH  024%=      5-min Rain = 0
KPD2 122002Z 14004KT 10/M09 A3011 RMK A01 T01031093  RH  024%=      5-min Rain = 0
KPD2 122003Z 14010G15KT 11/M09 A3011 RMK A01 T01051093  RH  024%=      5-min Rain = 0
KPD2 122004Z 14011KT 11/M09 A3011 RMK A01 T01061094  RH  024%=      5-min Rain = 0
KPD2 122005Z 17010KT 11/M10 A3011 RMK A01 T01061095  RH  023%=      5-min Rain = 0
KPD2 122006Z 15008KT 10/M10 A3011 RMK A01 T01041096  RH  023%=      5-min Rain = 0
KPD2 122007Z 18011G16KT 10/M10 A3011 RMK A01 T01021096  RH  024%=      5-min Rain = 0
KPD2 122008Z 15011G18KT 10/M10 A3011 RMK A01 T01021096  RH  024%=      5-min Rain = 0
KPD2 122009Z 15009G14KT 10/M10 A3011 RMK A01 T01021096  RH  024%=      5-min Rain = 0
KPD2 122010Z 16007KT 10/M10 A3011 RMK A01 T01021096  RH  024%=      5-min Rain = 0
KPD2 122011Z 15007G12KT 10/M10 A3011 RMK A01 T01021095  RH  024%=      5-min Rain = 0
KPD2 122012Z 15006KT 10/M10 A3011 RMK A01 T01031095  RH  024%=      5-min Rain = 0
KPD2 122013Z 14009KT 11/M09 A3011 RMK A01 T01051094  RH  024%=      5-min Rain = 0
KPD2 122014Z 16013KT 11/M09 A3011 RMK A01 T01061094  RH  024%=      5-min Rain = 0
KPD2 122015Z 17011KT 11/M09 A3011 RMK A01 T01081094  RH  023%=      5-min Rain = 0
KPD2 122016Z 19010KT 11/M10 A3011 RMK A01 T01051096  RH  023%=      5-min Rain = 0
KPD2 122017Z 19006KT 10/M10 A3011 RMK A01 T01041095  RH  024%=      5-min Rain = 0
KPD2 122018Z 22004KT 10/M10 A3011 RMK A01 T01041095  RH  024%=      5-min Rain = 0
KPD2 122019Z 18006KT 11/M09 A301 RMK A01 T01061094  RH  024%=      5-min Rain = 0
KPD2 122020Z 15006KT 11/M09 A301 RMK A01 T01081093  RH  023%=      5-min Rain = 0
KPD2 122021Z 14008G13KT 11/M09 A301 RMK A01 T01101093  RH  023%=      5-min Rain = 0
KPD2 122022Z 15009G14KT 11/M09 A301 RMK A01 T01111093  RH  023%=      5-min Rain = 0
KPD2 122023Z 15009KT 11/M09 A301 RMK A01 T01111094  RH  023%=      5-min Rain = 0
KPD2 122024Z 14007KT 11/M09 A301 RMK A01 T01101094  RH  023%=      5-min Rain = 0
KPD2 122025Z 14011KT 11/M09 A301 RMK A01 T01101094  RH  023%=      5-min Rain = 0
KPD2 122026Z 15013KT 11/M09 A301 RMK A01 T01121093  RH  023%=      5-min Rain = 0
KPD2 122027Z 16008KT 11/M09 A301 RMK A01 T01111094  RH  023%=      5-min Rain = 0
KPD2 122028Z 17009KT 11/M09 A301 RMK A01 T01111094  RH  023%=      5-min Rain = 0
KPD2 122029Z 16006KT 11/M09 A301 RMK A01 T01101094  RH  023%=      5-min Rain = 0
KPD2 122030Z 15009KT 11/M09 A301 RMK A01 T01101094  RH  023%=      5-min Rain = 0
KPD2 122031Z 13012G17KT 11/M10 A301 RMK A01 T01101095  RH  023%=      5-min Rain = 0
KPD2 122032Z 13015KT 11/M09 A301 RMK A01 T01101094  RH  023%=      5-min Rain = 0
KPD2 122033Z 15011G16KT 11/M10 A301 RMK A01 T01101095  RH  023%=      5-min Rain = 0
KPD2 122034Z 16012KT 11/M10 A301 RMK A01 T01091096  RH  023%=      5-min Rain = 0
KPD2 122035Z 17009KT 11/M10 A301 RMK A01 T01081095  RH  023%=      5-min Rain = 0
KPD2 122036Z 17006KT 11/M10 A301 RMK A01 T01071096  RH  023%=      5-min Rain = 0
KPD2 122037Z 15008G13KT 11/M10 A301 RMK A01 T01071095  RH  023%=      5-min Rain = 0
KPD2 122038Z 15012KT 11/M09 A301 RMK A01 T01091094  RH  023%=      5-min Rain = 0
KPD2 122039Z 14010G16KT 11/M09 A301 RMK A01 T01101094  RH  023%=      5-min Rain = 0
KPD2 122040Z 14011KT 11/M09 A301 RMK A01 T01101094  RH  023%=      5-min Rain = 0
KPD2 122041Z 17008G13KT 11/M09 A301 RMK A01 T01121094  RH  023%=      5-min Rain = 0
KPD2 122042Z 20011G17KT 11/M09 A301 RMK A01 T01121094  RH  023%=      5-min Rain = 0
KPD2 122043Z 22007KT 11/M10 A301 RMK A01 T01101095  RH  023%=      5-min Rain = 0
KPD2 122044Z 18005KT 11/M10 A301 RMK A01 T01101095  RH  023%=      5-min Rain = 0
KPD2 122045Z 15007KT 11/M09 A301 RMK A01 T01101094  RH  023%=      5-min Rain = 0
KPD2 122046Z 15008KT 11/M09 A301 RMK A01 T01121093  RH  023%=      5-min Rain = 0
KPD2 122047Z 15013KT 11/M10 A301 RMK A01 T01121095  RH  023%=      5-min Rain = 0
KPD2 122048Z 16013KT 11/M10 A301 RMK A01 T01121095  RH  023%=      5-min Rain = 0
KPD2 122049Z 16010KT 11/M10 A301 RMK A01 T01111095  RH  023%=      5-min Rain = 0
KPD2 122050Z 14010KT 11/M09 A301 RMK A01 T01121094  RH  023%=      5-min Rain = 0
KPD2 122051Z 16008KT 11/M09 A301 RMK A01 T01141093  RH  023%=      5-min Rain = 0
KPD2 122052Z 15009KT 12/M09 A301 RMK A01 T01151093  RH  022%=      5-min Rain = 0
KPD2 122053Z 15009KT 12/M09 A301 RMK A01 T01151093  RH  022%=      5-min Rain = 0
KPD2 122054Z 15008KT 12/M09 A301 RMK A01 T01151094  RH  022%=      5-min Rain = 0
KPD2 122055Z 15007KT 12/M09 A301 RMK A01 T01151093  RH  022%=      5-min Rain = 0
KPD2 122056Z 16011KT 12/M09 A301 RMK A01 T01181092  RH  022%=      5-min Rain = 0
KPD2 122057Z 15005KT 12/M09 A301 RMK A01 T01181094  RH  022%=      5-min Rain = 0
KPD2 122058Z 15005KT 12/M09 A301 RMK A01 T01171094  RH  022%=      5-min Rain = 0
KPD2 122059Z 15010KT 12/M09 A301 RMK A01 T01191091  RH  022%=      5-min Rain = 0
KPD2 122100Z 16009KT 12/M09 A301 RMK A01 T01191093  RH  022%=      5-min Rain = 0
KPD2 122101Z 18008KT 12/M09 A3009 RMK A01 T01161094  RH  022%=      5-min Rain = 0
KPD2 122102Z 16010KT 12/M09 A301 RMK A01 T01161094  RH  022%=      5-min Rain = 0
KPD2 122103Z 16008KT 12/M10 A301 RMK A01 T01151095  RH  022%=      5-min Rain = 0
KPD2 122104Z 14006KT 11/M10 A301 RMK A01 T01121095  RH  022%=      5-min Rain = 0
KPD2 122105Z 14008KT 11/M09 A301 RMK A01 T01131094  RH  023%=      5-min Rain = 0
KPD2 122106Z 17008KT 12/M09 A301 RMK A01 T01151092  RH  022%=      5-min Rain = 0
KPD2 122107Z 17005KT 12/M09 A301 RMK A01 T01161093  RH  022%=      5-min Rain = 0
KPD2 122108Z 20004KT 12/M09 A301 RMK A01 T01161093  RH  022%=      5-min Rain = 0
KPD2 122109Z 18005KT 12/M09 A3009 RMK A01 T01171092  RH  022%=      5-min Rain = 0
KPD2 122110Z 16006KT 12/M09 A3009 RMK A01 T01181092  RH  022%=      5-min Rain = 0
KPD2 122111Z 16012KT 12/M09 A3009 RMK A01 T01201091  RH  022%=      5-min Rain = 0
KPD2 122112Z 16008KT 12/M09 A3009 RMK A01 T01211092  RH  022%=      5-min Rain = 0
KPD2 122113Z 14011KT 12/M09 A3009 RMK A01 T01201092  RH  022%=      5-min Rain = 0
KPD2 122114Z 13009KT 12/M09 A3009 RMK A01 T01191093  RH  022%=      5-min Rain = 0
KPD2 122115Z 14009G15KT 12/M09 A3009 RMK A01 T01191093  RH  022%=      5-min Rain = 0
KPD2 122116Z 16012KT 12/M09 A3009 RMK A01 T01201092  RH  022%=      5-min Rain = 0
KPD2 122117Z 16009KT 12/M09 A3009 RMK A01 T01181093  RH  022%=      5-min Rain = 0
KPD2 122118Z 16009KT 12/M09 A3009 RMK A01 T01171093  RH  022%=      5-min Rain = 0
KPD2 122119Z 14008KT 12/M09 A3009 RMK A01 T01181092  RH  022%=      5-min Rain = 0
KPD2 122120Z 14012KT 12/M09 A3009 RMK A01 T01211090  RH  022%=      5-min Rain = 0
KPD2 122121Z 18011KT 12/M09 A3009 RMK A01 T01211092  RH  022%=      5-min Rain = 0
KPD2 122122Z 15008G14KT 12/M09 A3009 RMK A01 T01181092  RH  022%=      5-min Rain = 0
KPD2 122123Z 13013KT 12/M09 A3009 RMK A01 T01181091  RH  022%=      5-min Rain = 0
KPD2 122124Z 12010G15KT 12/M09 A3009 RMK A01 T01191091  RH  022%=      5-min Rain = 0
KPD2 122125Z 16011G16KT 12/M09 A3009 RMK A01 T01191091  RH  022%=      5-min Rain = 0
KPD2 122126Z 20007KT 12/M09 A3009 RMK A01 T01191090  RH  022%=      5-min Rain = 0
KPD2 122127Z 18007KT 12/M09 A3009 RMK A01 T01191090  RH  022%=      5-min Rain = 0
KPD2 122128Z 18004KT 12/M09 A3009 RMK A01 T01181091  RH  022%=      5-min Rain = 0
KPD2 122129Z 19004KT 12/M09 A3009 RMK A01 T01181090  RH  022%=      5-min Rain = 0
KPD2 122130Z 15007G12KT 12/M09 A3009 RMK A01 T01181091  RH  022%=      5-min Rain = 0
KPD2 122131Z 16008KT 12/M09 A3009 RMK A01 T01191090  RH  022%=      5-min Rain = 0
KPD2 122132Z 15009KT 12/M09 A3009 RMK A01 T01191091  RH  022%=      5-min Rain = 0
KPD2 122133Z 14009KT 12/M09 A3009 RMK A01 T01191090  RH  022%=      5-min Rain = 0
KPD2 122134Z 15012KT 12/M09 A301 RMK A01 T01201091  RH  022%=      5-min Rain = 0
KPD2 122135Z 17008G13KT 12/M09 A301 RMK A01 T01191091  RH  022%=      5-min Rain = 0
KPD2 122136Z 16007KT 12/M09 A301 RMK A01 T01191091  RH  022%=      5-min Rain = 0
KPD2 122137Z 15007KT 12/M09 A301 RMK A01 T01191090  RH  022%=      5-min Rain = 0
KPD2 122138Z 16012KT 12/M09 A301 RMK A01 T01201090  RH  022%=      5-min Rain = 0
KPD2 122139Z 16007KT 12/M09 A301 RMK A01 T01201091  RH  022%=      5-min Rain = 0
KPD2 122140Z 13005KT 12/M09 A301 RMK A01 T01201091  RH  022%=      5-min Rain = 0
KPD2 122141Z 15006KT 12/M09 A301 RMK A01 T01201090  RH  022%=      5-min Rain = 0
KPD2 122142Z 16006KT 12/M09 A301 RMK A01 T01211090  RH  022%=      5-min Rain = 0
KPD2 122143Z 15007KT 12/M09 A301 RMK A01 T01221089  RH  022%=      5-min Rain = 0
KPD2 122144Z 16004KT 12/M09 A301 RMK A01 T01231089  RH  022%=      5-min Rain = 0
KPD2 122145Z 15012G19KT 12/M09 A301 RMK A01 T01241089  RH  022%=      5-min Rain = 0
KPD2 122146Z 15012KT 12/M09 A301 RMK A01 T01221091  RH  022%=      5-min Rain = 0
KPD2 122147Z 16010KT 12/M09 A301 RMK A01 T01201091  RH  022%=      5-min Rain = 0
KPD2 122148Z 14010KT 12/M09 A301 RMK A01 T01201090  RH  022%=      5-min Rain = 0
KPD2 122149Z 14010KT 12/M09 A301 RMK A01 T01201091  RH  022%=      5-min Rain = 0
KPD2 122150Z 15014KT 12/M09 A301 RMK A01 T01201092  RH  022%=      5-min Rain = 0
KPD2 122151Z 15009G14KT 12/M09 A301 RMK A01 T01181093  RH  022%=      5-min Rain = 0
KPD2 122152Z 19010G16KT 12/M09 A301 RMK A01 T01171092  RH  022%=      5-min Rain = 0
KPD2 122153Z 17009KT 12/M09 A301 RMK A01 T01161092  RH  022%=      5-min Rain = 0
KPD2 122154Z 15008KT 12/M09 A301 RMK A01 T01161092  RH  022%=      5-min Rain = 0
KPD2 122155Z 16011KT 12/M09 A301 RMK A01 T01171091  RH  022%=      5-min Rain = 0
KPD2 122156Z 16010KT 12/M09 A301 RMK A01 T01181091  RH  022%=      5-min Rain = 0
KPD2 122157Z 16011KT 12/M09 A301 RMK A01 T01181092  RH  022%=      5-min Rain = 0
KPD2 122158Z 15012KT 12/M09 A301 RMK A01 T01181092  RH  022%=      5-min Rain = 0
KPD2 122159Z 15011KT 12/M09 A301 RMK A01 T01181092  RH  022%=      5-min Rain = 0
KPD2 122200Z 16011KT 12/M09 A301 RMK A01 T01171092  RH  022%=      5-min Rain = 0
KPD2 122201Z 16009KT 12/M09 A301 RMK A01 T01171092  RH  022%=      5-min Rain = 0
KPD2 122202Z 16009KT 12/M09 A301 RMK A01 T01171092  RH  022%=      5-min Rain = 0
KPD2 122203Z 15008KT 12/M09 A301 RMK A01 T01171093  RH  022%=      5-min Rain = 0
KPD2 122204Z 14007KT 12/M09 A301 RMK A01 T01171092  RH  022%=      5-min Rain = 0
KPD2 122205Z 13008KT 12/M09 A301 RMK A01 T01181091  RH  022%=      5-min Rain = 0
KPD2 122206Z 15007KT 12/M09 A301 RMK A01 T01201091  RH  022%=      5-min Rain = 0
KPD2 122207Z 16009KT 12/M09 A301 RMK A01 T01201092  RH  022%=      5-min Rain = 0
KPD2 122208Z 16010KT 12/M09 A301 RMK A01 T01201091  RH  022%=      5-min Rain = 0
KPD2 122209Z 16008KT 12/M09 A3011 RMK A01 T01201091  RH  022%=      5-min Rain = 0
KPD2 122210Z 15008KT 12/M09 A3011 RMK A01 T01191091  RH  022%=      5-min Rain = 0
KPD2 122211Z 17010KT 12/M09 A3011 RMK A01 T01201091  RH  022%=      5-min Rain = 0
KPD2 122212Z 16009KT 12/M09 A3011 RMK A01 T01191091  RH  022%=      5-min Rain = 0
KPD2 122213Z 15005KT 12/M09 A3011 RMK A01 T01191091  RH  022%=      5-min Rain = 0
KPD2 122214Z 15007KT 12/M09 A3011 RMK A01 T01191091  RH  022%=      5-min Rain = 0
KPD2 122215Z 16009KT 12/M09 A3011 RMK A01 T01201091  RH  022%=      5-min Rain = 0
KPD2 122216Z 15010KT 12/M09 A3011 RMK A01 T01191092  RH  022%=      5-min Rain = 0
KPD2 122217Z 14011KT 12/M09 A3011 RMK A01 T01181092  RH  022%=      5-min Rain = 0
KPD2 122218Z 15008KT 12/M09 A3011 RMK A01 T01181092  RH  022%=      5-min Rain = 0
KPD2 122219Z 14007KT 12/M09 A3011 RMK A01 T01181091  RH  022%=      5-min Rain = 0
KPD2 122220Z 14010KT 12/M09 A3011 RMK A01 T01181091  RH  022%=      5-min Rain = 0
KPD2 122221Z 13011KT 12/M09 A3011 RMK A01 T01181092  RH  022%=      5-min Rain = 0
KPD2 122222Z 14009KT 12/M09 A3011 RMK A01 T01181092  RH  022%=      5-min Rain = 0
KPD2 122223Z 14007KT 12/M09 A3011 RMK A01 T01171092  RH  022%=      5-min Rain = 0
KPD2 122224Z 15008KT 12/M09 A3011 RMK A01 T01171092  RH  022%=      5-min Rain = 0
KPD2 122225Z 15009KT 12/M09 A3011 RMK A01 T01171092  RH  022%=      5-min Rain = 0
KPD2 122226Z 17008KT 12/M09 A3011 RMK A01 T01171091  RH  022%=      5-min Rain = 0
KPD2 122227Z 16005KT 12/M09 A3011 RMK A01 T01171091  RH  022%=      5-min Rain = 0
KPD2 122228Z 15006KT 12/M09 A3011 RMK A01 T01171091  RH  022%=      5-min Rain = 0
KPD2 122229Z 13010KT 12/M09 A3011 RMK A01 T01181090  RH  022%=      5-min Rain = 0
KPD2 122230Z 12009KT 12/M09 A3011 RMK A01 T01191091  RH  022%=      5-min Rain = 0
KPD2 122231Z 13008KT 12/M09 A3012 RMK A01 T01191091  RH  022%=      5-min Rain = 0
KPD2 122232Z 13008KT 12/M09 A3012 RMK A01 T01191091  RH  022%=      5-min Rain = 0
KPD2 122233Z 14009KT 12/M09 A3012 RMK A01 T01191091  RH  022%=      5-min Rain = 0
KPD2 122234Z 14008KT 12/M09 A3012 RMK A01 T01191091  RH  022%=      5-min Rain = 0
KPD2 122235Z 13011KT 12/M09 A3012 RMK A01 T01181091  RH  022%=      5-min Rain = 0
KPD2 122236Z 14010KT 12/M09 A3012 RMK A01 T01171092  RH  022%=      5-min Rain = 0
KPD2 122237Z 14011KT 12/M09 A3012 RMK A01 T01171092  RH  022%=      5-min Rain = 0
KPD2 122238Z 14008KT 12/M09 A3012 RMK A01 T01161092  RH  022%=      5-min Rain = 0
KPD2 122239Z 14008KT 12/M09 A3012 RMK A01 T01151092  RH  022%=      5-min Rain = 0
KPD2 122240Z 14009KT 12/M09 A3011 RMK A01 T01151092  RH  023%=      5-min Rain = 0
KPD2 122241Z 14011KT 12/M09 A3011 RMK A01 T01151092  RH  023%=      5-min Rain = 0
KPD2 122242Z 15009KT 12/M09 A3011 RMK A01 T01151092  RH  023%=      5-min Rain = 0
KPD2 122243Z 15010KT 12/M09 A3011 RMK A01 T01151092  RH  023%=      5-min Rain = 0
KPD2 122244Z 14008KT 12/M09 A3011 RMK A01 T01151092  RH  023%=      5-min Rain = 0
KPD2 122245Z 14009KT 12/M09 A3011 RMK A01 T01151092  RH  022%=      5-min Rain = 0
KPD2 122246Z 15008KT 12/M09 A3011 RMK A01 T01151093  RH  022%=      5-min Rain = 0
KPD2 122247Z 15009KT 11/M09 A3011 RMK A01 T01141093  RH  023%=      5-min Rain = 0
KPD2 122248Z 14007KT 11/M09 A3011 RMK A01 T01121094  RH  023%=      5-min Rain = 0
KPD2 122249Z 13008KT 11/M09 A3011 RMK A01 T01121093  RH  023%=      5-min Rain = 0
KPD2 122250Z 13010KT 11/M09 A3012 RMK A01 T01121093  RH  023%=      5-min Rain = 0
KPD2 122251Z 14007KT 11/M09 A3012 RMK A01 T01131093  RH  023%=      5-min Rain = 0
KPD2 122252Z 15009KT 11/M09 A3012 RMK A01 T01131093  RH  023%=      5-min Rain = 0
KPD2 122253Z 14007KT 11/M09 A3012 RMK A01 T01121093  RH  023%=      5-min Rain = 0
KPD2 122254Z 14008KT 11/M09 A3012 RMK A01 T01121092  RH  023%=      5-min Rain = 0
KPD2 122255Z 14010KT 11/M09 A3012 RMK A01 T01121093  RH  023%=      5-min Rain = 0
KPD2 122256Z 14011KT 11/M09 A3012 RMK A01 T01111093  RH  023%=      5-min Rain = 0
KPD2 122257Z 13011KT 11/M09 A3012 RMK A01 T01111094  RH  023%=      5-min Rain = 0
KPD2 122258Z 13010KT 11/M09 A3012 RMK A01 T01101094  RH  023%=      5-min Rain = 0
KPD2 122259Z 13011KT 11/M09 A3012 RMK A01 T01101094  RH  023%=      5-min Rain = 0
KPD2 122300Z 13011KT 11/M09 A3012 RMK A01 T01101094  RH  023%=      5-min Rain = 0
KPD2 122301Z 13012KT 11/M09 A3012 RMK A01 T01091094  RH  023%=      5-min Rain = 0
KPD2 122302Z 13011KT 11/M09 A3012 RMK A01 T01091094  RH  023%=      5-min Rain = 0
KPD2 122303Z 14012KT 11/M10 A3012 RMK A01 T01081095  RH  023%=      5-min Rain = 0
KPD2 122304Z 14012KT 11/M10 A3013 RMK A01 T01071095  RH  023%=      5-min Rain = 0
KPD2 122305Z 13010KT 11/M10 A3013 RMK A01 T01061095  RH  023%=      5-min Rain = 0
KPD2 122306Z 13010KT 11/M09 A3013 RMK A01 T01061094  RH  023%=      5-min Rain = 0
KPD2 122307Z 14011KT 11/M10 A3013 RMK A01 T01051095  RH  023%=      5-min Rain = 0
KPD2 122308Z 13009KT 11/M10 A3013 RMK A01 T01051095  RH  024%=      5-min Rain = 0
KPD2 122309Z 13011KT 11/M10 A3013 RMK A01 T01051095  RH  024%=      5-min Rain = 0
KPD2 122310Z 13011KT 11/M10 A3013 RMK A01 T01051095  RH  024%=      5-min Rain = 0
KPD2 122311Z 14011KT 11/M10 A3013 RMK A01 T01051095  RH  024%=      5-min Rain = 0
KPD2 122312Z 14013KT 10/M10 A3013 RMK A01 T01041096  RH  024%=      5-min Rain = 0
KPD2 122313Z 14013KT 10/M10 A3013 RMK A01 T01031096  RH  024%=      5-min Rain = 0
KPD2 122314Z 13011KT 10/M10 A3014 RMK A01 T01031096  RH  024%=      5-min Rain = 0
KPD2 122315Z 14011KT 10/M10 A3014 RMK A01 T01011096  RH  024%=      5-min Rain = 0
KPD2 122316Z 14010KT 10/M10 A3014 RMK A01 T01011096  RH  024%=      5-min Rain = 0
KPD2 122317Z 14008KT 10/M10 A3014 RMK A01 T01001097  RH  024%=      5-min Rain = 0
KPD2 122318Z 14009KT 10/M10 A3014 RMK A01 T00991097  RH  024%=      5-min Rain = 0
KPD2 122319Z 14009KT 10/M10 A3014 RMK A01 T00981097  RH  024%=      5-min Rain = 0
KPD2 122320Z 14009KT 10/M10 A3014 RMK A01 T00971097  RH  024%=      5-min Rain = 0
KPD2 122321Z 14008KT 10/M10 A3014 RMK A01 T00961097  RH  025%=      5-min Rain = 0
KPD2 122322Z 13009KT 10/M10 A3014 RMK A01 T00951097  RH  025%=      5-min Rain = 0
KPD2 122323Z 14011KT 09/M10 A3014 RMK A01 T00941097  RH  025%=      5-min Rain = 0
KPD2 122324Z 14011KT 09/M10 A3014 RMK A01 T00941097  RH  025%=      5-min Rain = 0
KPD2 122325Z 14011KT 09/M10 A3014 RMK A01 T00941097  RH  025%=      5-min Rain = 0
KPD2 122326Z 14010KT 09/M10 A3014 RMK A01 T00941097  RH  025%=      5-min Rain = 0
KPD2 122327Z 14009KT 09/M10 A3014 RMK A01 T00931097  RH  025%=      5-min Rain = 0
KPD2 122328Z 13011G16KT 09/M10 A3014 RMK A01 T00931097  RH  025%=      5-min Rain = 0
KPD2 122329Z 13010KT 09/M10 A3014 RMK A01 T00921098  RH  025%=      5-min Rain = 0
KPD2 122330Z 12010KT 09/M10 A3014 RMK A01 T00891100  RH  025%=      5-min Rain = 0
KPD2 122331Z 13011KT 09/M10 A3014 RMK A01 T00871101  RH  025%=      5-min Rain = 0
KPD2 122332Z 12013KT 09/M10 A3015 RMK A01 T00851101  RH  026%=      5-min Rain = 0
KPD2 122333Z 13010KT 08/M10 A3015 RMK A01 T00841101  RH  026%=      5-min Rain = 0
KPD2 122334Z 13010KT 08/M10 A3015 RMK A01 T00821102  RH  026%=      5-min Rain = 0
KPD2 122335Z 13011KT 08/M10 A3015 RMK A01 T00801102  RH  026%=      5-min Rain = 0
KPD2 122336Z 13009KT 08/M10 A3015 RMK A01 T00791102  RH  026%=      5-min Rain = 0
KPD2 122337Z 12008KT 08/M10 A3015 RMK A01 T00781103  RH  027%=      5-min Rain = 0
KPD2 122338Z 12008KT 08/M10 A3015 RMK A01 T00761104  RH  027%=      5-min Rain = 0
KPD2 122339Z 13008KT 08/M10 A3015 RMK A01 T00751104  RH  027%=      5-min Rain = 0
KPD2 122340Z 13009KT 07/M10 A3015 RMK A01 T00741104  RH  027%=      5-min Rain = 0
KPD2 122341Z 14008KT 07/M11 A3015 RMK A01 T00721105  RH  027%=      5-min Rain = 0
KPD2 122342Z 13008KT 07/M11 A3016 RMK A01 T00711105  RH  027%=      5-min Rain = 0
KPD2 122343Z 13010KT 07/M11 A3016 RMK A01 T00701105  RH  028%=      5-min Rain = 0
KPD2 122344Z 13008KT 07/M11 A3016 RMK A01 T00691105  RH  028%=      5-min Rain = 0
KPD2 122345Z 10007KT 07/M11 A3016 RMK A01 T00681106  RH  028%=      5-min Rain = 0
KPD2 122346Z 11010KT 07/M11 A3016 RMK A01 T00671106  RH  028%=      5-min Rain = 0
KPD2 122347Z 11010KT 07/M11 A3016 RMK A01 T00671107  RH  028%=      5-min Rain = 0
KPD2 122348Z 12010KT 07/M11 A3017 RMK A01 T00661107  RH  028%=      5-min Rain = 0
KPD2 122349Z 12009KT 07/M11 A3017 RMK A01 T00661108  RH  028%=      5-min Rain = 0
KPD2 122350Z 13008KT 07/M11 A3017 RMK A01 T00651108  RH  028%=      5-min Rain = 0
KPD2 122351Z 13007KT 06/M11 A3017 RMK A01 T00631108  RH  028%=      5-min Rain = 0
KPD2 122352Z 13010KT 06/M11 A3017 RMK A01 T00621108  RH  028%=      5-min Rain = 0
KPD2 122353Z 13009KT 06/M11 A3017 RMK A01 T00621109  RH  028%=      5-min Rain = 0
KPD2 122354Z 13009KT 06/M11 A3017 RMK A01 T00611109  RH  028%=      5-min Rain = 0
KPD2 122355Z 12008KT 06/M11 A3018 RMK A01 T00611109  RH  029%=      5-min Rain = 0
KPD2 122356Z 12006KT 06/M11 A3018 RMK A01 T00601108  RH  029%=      5-min Rain = 0
KPD2 122357Z 13006KT 06/M11 A3018 RMK A01 T00591109  RH  029%=      5-min Rain = 0
KPD2 122358Z 14007KT 06/M11 A3018 RMK A01 T00591109  RH  029%=      5-min Rain = 0
KPD2 122359Z 14008KT 06/M11 A3018 RMK A01 T00581109  RH  029%=      5-min Rain = 0
KPD2 130000Z 13009KT 06/M11 A3018 RMK A01 T00571109  RH  029%=      5-min Rain = 0
KPD2 130001Z 13007KT 06/M11 A3018 RMK A01 T00571109  RH  029%=      5-min Rain = 0
KPD2 130002Z 13007KT 06/M11 A3019 RMK A01 T00561109  RH  029%=      5-min Rain = 0
KPD2 130003Z 13007KT 06/M11 A3019 RMK A01 T00551110  RH  029%=      5-min Rain = 0
KPD2 130004Z 13009KT 05/M11 A3019 RMK A01 T00541110  RH  029%=      5-min Rain = 0
KPD2 130005Z 13008G13KT 05/M11 A3019 RMK A01 T00541110  RH  030%=      5-min Rain = 0
KPD2 130006Z 14007KT 05/M11 A3019 RMK A01 T00541110  RH  030%=      5-min Rain = 0
KPD2 130007Z 14007KT 05/M11 A3019 RMK A01 T00541110  RH  030%=      5-min Rain = 0
KPD2 130008Z 14008KT 05/M11 A3019 RMK A01 T00531111  RH  030%=      5-min Rain = 0
KPD2 130009Z 14008KT 05/M11 A3019 RMK A01 T00531110  RH  030%=      5-min Rain = 0
KPD2 130010Z 13008KT 05/M11 A3019 RMK A01 T00521110  RH  030%=      5-min Rain = 0
KPD2 130011Z 14007KT 05/M11 A3019 RMK A01 T00521111  RH  030%=      5-min Rain = 0
KPD2 130012Z 14007KT 05/M11 A302 RMK A01 T00511110  RH  030%=      5-min Rain = 0
KPD2 130013Z 13008KT 05/M11 A302 RMK A01 T00501111  RH  030%=      5-min Rain = 0
KPD2 130014Z 13011KT 05/M11 A302 RMK A01 T00501112  RH  030%=      5-min Rain = 0
KPD2 130015Z 12008KT 05/M11 A302 RMK A01 T00501112  RH  030%=      5-min Rain = 0
KPD2 130016Z 13008KT 05/M11 A302 RMK A01 T00501112  RH  030%=      5-min Rain = 0
KPD2 130017Z 13008KT 05/M11 A302 RMK A01 T00491112  RH  030%=      5-min Rain = 0
KPD2 130018Z 14008KT 05/M11 A302 RMK A01 T00491113  RH  030%=      5-min Rain = 0
KPD2 130019Z 13008KT 05/M11 A3021 RMK A01 T00481113  RH  030%=      5-min Rain = 0
KPD2 130020Z 14007KT 05/M11 A3021 RMK A01 T00481113  RH  030%=      5-min Rain = 0
KPD2 130021Z 14008KT 05/M11 A3021 RMK A01 T00481113  RH  030%=      5-min Rain = 0
KPD2 130022Z 14009KT 05/M11 A3021 RMK A01 T00471113  RH  030%=      5-min Rain = 0
KPD2 130023Z 13009KT 05/M11 A3021 RMK A01 T00471114  RH  030%=      5-min Rain = 0
KPD2 130024Z 14008KT 05/M11 A3021 RMK A01 T00471114  RH  030%=      5-min Rain = 0
KPD2 130025Z 14007KT 05/M11 A3021 RMK A01 T00461114  RH  030%=      5-min Rain = 0
KPD2 130026Z 14006KT 05/M12 A3021 RMK A01 T00461115  RH  030%=      5-min Rain = 0
KPD2 130027Z 14007KT 05/M11 A3021 RMK A01 T00461114  RH  030%=      5-min Rain = 0
KPD2 130028Z 14008KT 05/M12 A3021 RMK A01 T00461115  RH  030%=      5-min Rain = 0
KPD2 130029Z 14008KT 05/M12 A3021 RMK A01 T00451115  RH  030%=      5-min Rain = 0
KPD2 130030Z 14009KT 05/M12 A3022 RMK A01 T00451115  RH  030%=      5-min Rain = 0
KPD2 130031Z 13008KT 05/M12 A3022 RMK A01 T00451115  RH  030%=      5-min Rain = 0
KPD2 130032Z 13006KT 05/M12 A3022 RMK A01 T00451115  RH  030%=      5-min Rain = 0
KPD2 130033Z 12010KT 05/M12 A3022 RMK A01 T00451115  RH  030%=      5-min Rain = 0
KPD2 130034Z 13007KT 05/M12 A3022 RMK A01 T00451116  RH  030%=      5-min Rain = 0
KPD2 130035Z 13007KT 04/M12 A3022 RMK A01 T00441116  RH  030%=      5-min Rain = 0
KPD2 130036Z 13007KT 05/M12 A3022 RMK A01 T00451116  RH  030%=      5-min Rain = 0
KPD2 130037Z 12011KT 04/M12 A3022 RMK A01 T00441117  RH  030%=      5-min Rain = 0
KPD2 130038Z 12013KT 04/M12 A3022 RMK A01 T00441118  RH  030%=      5-min Rain = 0
KPD2 130039Z 13008KT 04/M12 A3022 RMK A01 T00441118  RH  030%=      5-min Rain = 0
KPD2 130040Z 13010KT 04/M12 A3022 RMK A01 T00441118  RH  030%=      5-min Rain = 0
KPD2 130041Z 12011KT 04/M12 A3022 RMK A01 T00441117  RH  030%=      5-min Rain = 0
KPD2 130042Z 12009KT 04/M12 A3022 RMK A01 T00441118  RH  030%=      5-min Rain = 0
KPD2 130043Z 13007KT 04/M12 A3023 RMK A01 T00441118  RH  030%=      5-min Rain = 0
KPD2 130044Z 13007KT 04/M12 A3023 RMK A01 T00441118  RH  030%=      5-min Rain = 0
KPD2 130045Z 14006KT 04/M12 A3023 RMK A01 T00431118  RH  030%=      5-min Rain = 0
KPD2 130046Z 13009KT 04/M12 A3023 RMK A01 T00431118  RH  030%=      5-min Rain = 0
KPD2 130047Z 13010KT 04/M12 A3023 RMK A01 T00421119  RH  030%=      5-min Rain = 0
KPD2 130048Z 13009KT 04/M12 A3023 RMK A01 T00421119  RH  030%=      5-min Rain = 0
KPD2 130049Z 14009KT 04/M12 A3024 RMK A01 T00421120  RH  030%=      5-min Rain = 0
KPD2 130050Z 14008KT 04/M12 A3024 RMK A01 T00421120  RH  030%=      5-min Rain = 0
KPD2 130051Z 13009KT 04/M12 A3024 RMK A01 T00421120  RH  030%=      5-min Rain = 0
KPD2 130052Z 13008KT 04/M12 A3024 RMK A01 T00421120  RH  030%=      5-min Rain = 0
KPD2 130053Z 13008KT 04/M12 A3024 RMK A01 T00421120  RH  030%=      5-min Rain = 0
KPD2 130054Z 13010KT 04/M12 A3024 RMK A01 T00421121  RH  030%=      5-min Rain = 0
KPD2 130055Z 14007KT 04/M12 A3024 RMK A01 T00421121  RH  030%=      5-min Rain = 0
KPD2 130056Z 14008KT 04/M12 A3024 RMK A01 T00411121  RH  029%=      5-min Rain = 0
KPD2 130057Z 14010KT 04/M12 A3024 RMK A01 T00411121  RH  030%=      5-min Rain = 0
KPD2 130058Z 13012KT 04/M12 A3025 RMK A01 T00411121  RH  029%=      5-min Rain = 0
KPD2 130059Z 13010KT 04/M12 A3025 RMK A01 T00411122  RH  029%=      5-min Rain = 0
KPD2 130100Z 14009KT 04/M12 A3025 RMK A01 T00411122  RH  029%=      5-min Rain = 0
KPD2 130101Z 14007KT 04/M12 A3025 RMK A01 T00411122  RH  029%=      5-min Rain = 0
KPD2 130102Z 14006KT 04/M12 A3025 RMK A01 T00411122  RH  029%=      5-min Rain = 0
KPD2 130103Z 14008KT 04/M12 A3025 RMK A01 T00411122  RH  029%=      5-min Rain = 0
KPD2 130104Z 14009KT 04/M12 A3026 RMK A01 T00411122  RH  029%=      5-min Rain = 0
KPD2 130105Z 13008KT 04/M12 A3026 RMK A01 T00411122  RH  029%=      5-min Rain = 0
KPD2 130106Z 13007KT 04/M12 A3026 RMK A01 T00401122  RH  029%=      5-min Rain = 0
KPD2 130107Z 13007KT 04/M12 A3026 RMK A01 T00401122  RH  029%=      5-min Rain = 0
KPD2 130108Z 12008KT 04/M12 A3026 RMK A01 T00401122  RH  029%=      5-min Rain = 0
KPD2 130109Z 12008KT 04/M12 A3027 RMK A01 T00401122  RH  029%=      5-min Rain = 0
KPD2 130110Z 12009KT 04/M12 A3027 RMK A01 T00401122  RH  029%=      5-min Rain = 0
KPD2 130111Z 12007KT 04/M12 A3027 RMK A01 T00401122  RH  029%=      5-min Rain = 0
KPD2 130112Z 14008KT 04/M12 A3027 RMK A01 T00401123  RH  029%=      5-min Rain = 0
KPD2 130113Z 12009KT 04/M12 A3027 RMK A01 T00401123  RH  029%=      5-min Rain = 0
KPD2 130114Z 13008KT 04/M12 A3027 RMK A01 T00401123  RH  029%=      5-min Rain = 0
KPD2 130115Z 13008KT 04/M12 A3027 RMK A01 T00401124  RH  029%=      5-min Rain = 0
KPD2 130116Z 13008KT 04/M12 A3027 RMK A01 T00391124  RH  029%=      5-min Rain = 0
KPD2 130117Z 13008KT 04/M12 A3027 RMK A01 T00391124  RH  029%=      5-min Rain = 0
KPD2 130118Z 14008KT 04/M12 A3027 RMK A01 T00391124  RH  029%=      5-min Rain = 0
KPD2 130119Z 14009KT 04/M12 A3027 RMK A01 T00381124  RH  029%=      5-min Rain = 0
KPD2 130120Z 14007KT 04/M12 A3027 RMK A01 T00381124  RH  029%=      5-min Rain = 0
KPD2 130121Z 13007KT 04/M12 A3027 RMK A01 T00381124  RH  029%=      5-min Rain = 0
KPD2 130122Z 13009KT 04/M13 A3027 RMK A01 T00381125  RH  029%=      5-min Rain = 0
KPD2 130123Z 13010KT 04/M13 A3027 RMK A01 T00381125  RH  029%=      5-min Rain = 0
KPD2 130124Z 13009KT 04/M13 A3027 RMK A01 T00381125  RH  029%=      5-min Rain = 0
KPD2 130125Z 14006KT 04/M13 A3027 RMK A01 T00371125  RH  029%=      5-min Rain = 0
KPD2 130126Z 13007KT 04/M13 A3028 RMK A01 T00371125  RH  029%=      5-min Rain = 0
KPD2 130127Z 12008KT 04/M13 A3028 RMK A01 T00371125  RH  029%=      5-min Rain = 0
KPD2 130128Z 13009KT 04/M13 A3028 RMK A01 T00371126  RH  029%=      5-min Rain = 0
KPD2 130129Z 14007KT 04/M13 A3028 RMK A01 T00371126  RH  029%=      5-min Rain = 0
KPD2 130130Z 14008KT 04/M13 A3028 RMK A01 T00361126  RH  029%=      5-min Rain = 0
KPD2 130131Z 14011KT 04/M13 A3027 RMK A01 T00361126  RH  030%=      5-min Rain = 0
KPD2 130132Z 15012KT 04/M13 A3027 RMK A01 T00361126  RH  029%=      5-min Rain = 0
KPD2 130133Z 15011KT 04/M13 A3027 RMK A01 T00361126  RH  029%=      5-min Rain = 0
KPD2 130134Z 14011KT 04/M13 A3027 RMK A01 T00361127  RH  029%=      5-min Rain = 0
KPD2 130135Z 13009KT 04/M13 A3027 RMK A01 T00351127  RH  029%=      5-min Rain = 0
KPD2 130136Z 14008KT 04/M13 A3027 RMK A01 T00351127  RH  029%=      5-min Rain = 0
KPD2 130137Z 15010KT 04/M13 A3027 RMK A01 T00351127  RH  029%=      5-min Rain = 0
KPD2 130138Z 14010KT 03/M13 A3027 RMK A01 T00341127  RH  030%=      5-min Rain = 0
KPD2 130139Z 14009KT 03/M13 A3027 RMK A01 T00341127  RH  030%=      5-min Rain = 0
KPD2 130140Z 14008KT 03/M13 A3027 RMK A01 T00341127  RH  030%=      5-min Rain = 0
KPD2 130141Z 12006KT 03/M13 A3028 RMK A01 T00341127  RH  030%=      5-min Rain = 0
KPD2 130142Z 12006KT 03/M13 A3028 RMK A01 T00341127  RH  030%=      5-min Rain = 0
KPD2 130143Z 13008KT 03/M13 A3028 RMK A01 T00331127  RH  030%=      5-min Rain = 0
KPD2 130144Z 13008KT 03/M13 A3028 RMK A01 T00331128  RH  030%=      5-min Rain = 0
KPD2 130145Z 14007KT 03/M13 A3028 RMK A01 T00321128  RH  030%=      5-min Rain = 0
KPD2 130146Z 13007KT 03/M13 A3028 RMK A01 T00321128  RH  030%=      5-min Rain = 0
KPD2 130147Z 14006KT 03/M13 A3028 RMK A01 T00311128  RH  030%=      5-min Rain = 0
KPD2 130148Z 14008KT 03/M13 A3028 RMK A01 T00311128  RH  030%=      5-min Rain = 0
KPD2 130149Z 14008KT 03/M13 A3029 RMK A01 T00311128  RH  030%=      5-min Rain = 0
KPD2 130150Z 13006KT 03/M13 A3029 RMK A01 T00311128  RH  030%=      5-min Rain = 0
KPD2 130151Z 14007KT 03/M13 A3029 RMK A01 T00301129  RH  030%=      5-min Rain = 0
KPD2 130152Z 14008KT 03/M13 A3029 RMK A01 T00301128  RH  030%=      5-min Rain = 0
KPD2 130153Z 14007KT 03/M13 A3029 RMK A01 T00301129  RH  030%=      5-min Rain = 0
KPD2 130154Z 15006KT 03/M13 A3029 RMK A01 T00291129  RH  030%=      5-min Rain = 0
KPD2 130155Z 14008KT 03/M13 A3029 RMK A01 T00291129  RH  030%=      5-min Rain = 0
KPD2 130156Z 14008KT 03/M13 A3029 RMK A01 T00291129  RH  030%=      5-min Rain = 0
KPD2 130157Z 13010KT 03/M13 A3029 RMK A01 T00281129  RH  030%=      5-min Rain = 0
KPD2 130158Z 13008KT 03/M13 A3029 RMK A01 T00281129  RH  030%=      5-min Rain = 0
KPD2 130159Z 14008G13KT 03/M13 A3029 RMK A01 T00291129  RH  030%=      5-min Rain = 0
KPD2 130200Z 13006KT 03/M13 A303 RMK A01 T00281129  RH  030%=      5-min Rain = 0
KPD2 130201Z 14007KT 03/M13 A303 RMK A01 T00281129  RH  030%=      5-min Rain = 0
KPD2 130202Z 15006KT 03/M13 A303 RMK A01 T00281129  RH  030%=      5-min Rain = 0
KPD2 130203Z 14007KT 03/M13 A303 RMK A01 T00281129  RH  030%=      5-min Rain = 0
KPD2 130204Z 13006KT 03/M13 A303 RMK A01 T00271130  RH  030%=      5-min Rain = 0
KPD2 130205Z 15006KT 03/M13 A303 RMK A01 T00271130  RH  031%=      5-min Rain = 0
KPD2 130206Z 14005KT 03/M13 A303 RMK A01 T00261130  RH  031%=      5-min Rain = 0
KPD2 130207Z 14005KT 03/M13 A303 RMK A01 T00251130  RH  031%=      5-min Rain = 0
KPD2 130208Z 14005KT 02/M13 A303 RMK A01 T00241130  RH  031%=      5-min Rain = 0
KPD2 130209Z 13007KT 02/M13 A3031 RMK A01 T00231130  RH  031%=      5-min Rain = 0
KPD2 130210Z 14007KT 02/M13 A3031 RMK A01 T00231130  RH  031%=      5-min Rain = 0
KPD2 130211Z 14008KT 02/M13 A3031 RMK A01 T00231130  RH  031%=      5-min Rain = 0
KPD2 130212Z 15007KT 02/M13 A303 RMK A01 T00231130  RH  031%=      5-min Rain = 0
KPD2 130213Z 14007KT 02/M13 A3031 RMK A01 T00231129  RH  031%=      5-min Rain = 0
KPD2 130214Z 15005KT 02/M13 A3031 RMK A01 T00231130  RH  031%=      5-min Rain = 0
KPD2 130215Z 15005KT 02/M13 A3031 RMK A01 T00231130  RH  031%=      5-min Rain = 0
KPD2 130216Z 14006KT 02/M13 A3031 RMK A01 T00221130  RH  031%=      5-min Rain = 0
KPD2 130217Z 14005KT 02/M13 A3031 RMK A01 T00221129  RH  032%=      5-min Rain = 0
KPD2 130218Z 14006KT 02/M13 A3032 RMK A01 T00221130  RH  032%=      5-min Rain = 0
KPD2 130219Z 14005KT 02/M13 A3032 RMK A01 T00221130  RH  032%=      5-min Rain = 0
KPD2 130220Z 15007KT 02/M13 A3032 RMK A01 T00221130  RH  032%=      5-min Rain = 0
KPD2 130221Z 14007KT 02/M13 A3032 RMK A01 T00211130  RH  032%=      5-min Rain = 0
KPD2 130222Z 13006KT 02/M13 A3032 RMK A01 T00211130  RH  032%=      5-min Rain = 0
KPD2 130223Z 12006KT 02/M13 A3032 RMK A01 T00211130  RH  032%=      5-min Rain = 0
KPD2 130224Z 12006KT 02/M13 A3033 RMK A01 T00201130  RH  032%=      5-min Rain = 0
KPD2 130225Z 13006KT 02/M13 A3033 RMK A01 T00191130  RH  032%=      5-min Rain = 0
KPD2 130226Z 13005KT 02/M13 A3033 RMK A01 T00191130  RH  032%=      5-min Rain = 0
KPD2 130227Z 13005KT 02/M13 A3033 RMK A01 T00181130  RH  032%=      5-min Rain = 0
KPD2 130228Z 12006KT 02/M13 A3033 RMK A01 T00171130  RH  033%=      5-min Rain = 0
KPD2 130229Z 12005KT 02/M13 A3033 RMK A01 T00161131  RH  033%=      5-min Rain = 0
KPD2 130230Z 12005KT 02/M13 A3033 RMK A01 T00161130  RH  033%=      5-min Rain = 0
KPD2 130231Z 12005KT 02/M13 A3033 RMK A01 T00151130  RH  033%=      5-min Rain = 0
KPD2 130232Z 12004KT 02/M13 A3033 RMK A01 T00151130  RH  033%=      5-min Rain = 0
KPD2 130233Z 13005KT 02/M13 A3034 RMK A01 T00151130  RH  033%=      5-min Rain = 0
KPD2 130234Z 13007KT 01/M13 A3034 RMK A01 T00141130  RH  033%=      5-min Rain = 0
KPD2 130235Z 13005KT 01/M13 A3034 RMK A01 T00141130  RH  033%=      5-min Rain = 0
KPD2 130236Z 12006KT 01/M13 A3034 RMK A01 T00141130  RH  033%=      5-min Rain = 0
KPD2 130237Z 12005KT 01/M13 A3034 RMK A01 T00141130  RH  033%=      5-min Rain = 0
KPD2 130238Z 12006KT 01/M13 A3034 RMK A01 T00141130  RH  034%=      5-min Rain = 0
KPD2 130239Z 11008KT 01/M13 A3034 RMK A01 T00141129  RH  034%=      5-min Rain = 0
KPD2 130240Z 12010KT 02/M13 A3035 RMK A01 T00151129  RH  033%=      5-min Rain = 0
KPD2 130241Z 12010KT 02/M13 A3035 RMK A01 T00171128  RH  033%=      5-min Rain = 0
KPD2 130242Z 11008KT 02/M13 A3035 RMK A01 T00171128  RH  033%=      5-min Rain = 0
KPD2 130243Z 12007KT 02/M13 A3035 RMK A01 T00181129  RH  033%=      5-min Rain = 0
KPD2 130244Z 13005KT 02/M13 A3035 RMK A01 T00181129  RH  033%=      5-min Rain = 0
KPD2 130245Z 14005KT 02/M13 A3035 RMK A01 T00171130  RH  033%=      5-min Rain = 0
KPD2 130246Z 14007KT 02/M13 A3035 RMK A01 T00151130  RH  033%=      5-min Rain = 0
KPD2 130247Z 13006KT 01/M13 A3035 RMK A01 T00141131  RH  033%=      5-min Rain = 0
KPD2 130248Z 13007KT 01/M13 A3035 RMK A01 T00141130  RH  033%=      5-min Rain = 0
KPD2 130249Z 13007KT 01/M13 A3035 RMK A01 T00131131  RH  034%=      5-min Rain = 0
KPD2 130250Z 13009KT 01/M13 A3036 RMK A01 T00121130  RH  034%=      5-min Rain = 0
KPD2 130251Z 13007KT 01/M13 A3036 RMK A01 T00121130  RH  034%=      5-min Rain = 0
KPD2 130252Z 13005KT 01/M13 A3036 RMK A01 T00121131  RH  034%=      5-min Rain = 0
KPD2 130253Z 13006KT 01/M13 A3036 RMK A01 T00121131  RH  034%=      5-min Rain = 0
KPD2 130254Z 13005KT 01/M13 A3036 RMK A01 T00111131  RH  034%=      5-min Rain = 0
KPD2 130255Z 13006KT 01/M13 A3036 RMK A01 T00101132  RH  034%=      5-min Rain = 0
KPD2 130256Z 13006KT 01/M13 A3036 RMK A01 T00101131  RH  034%=      5-min Rain = 0
KPD2 130257Z 13006KT 01/M13 A3036 RMK A01 T00101131  RH  034%=      5-min Rain = 0
KPD2 130258Z 14006KT 01/M13 A3036 RMK A01 T00101131  RH  034%=      5-min Rain = 0
KPD2 130259Z 13007KT 01/M13 A3036 RMK A01 T00101131  RH  034%=      5-min Rain = 0
KPD2 130300Z 14005KT 01/M13 A3036 RMK A01 T00101131  RH  034%=      5-min Rain = 0
KPD2 130301Z 15006KT 01/M13 A3036 RMK A01 T00091131  RH  034%=      5-min Rain = 0
KPD2 130302Z 14005KT 01/M13 A3036 RMK A01 T00091131  RH  034%=      5-min Rain = 0
KPD2 130303Z 14005KT 01/M13 A3036 RMK A01 T00081131  RH  034%=      5-min Rain = 0
KPD2 130304Z 14005KT 01/M13 A3036 RMK A01 T00071132  RH  035%=      5-min Rain = 0
KPD2 130305Z 14006KT 01/M13 A3036 RMK A01 T00061131  RH  035%=      5-min Rain = 0
KPD2 130306Z 14005KT 01/M13 A3036 RMK A01 T00061131  RH  035%=      5-min Rain = 0
KPD2 130307Z 14005KT 01/M13 A3036 RMK A01 T00061131  RH  035%=      5-min Rain = 0
KPD2 130308Z 14005KT 01/M13 A3037 RMK A01 T00051131  RH  035%=      5-min Rain = 0
KPD2 130309Z 13004KT 01/M13 A3037 RMK A01 T00051131  RH  035%=      5-min Rain = 0
KPD2 130310Z 13004KT 00/M13 A3037 RMK A01 T00041131  RH  035%=      5-min Rain = 0
KPD2 130311Z 13005KT 00/M13 A3037 RMK A01 T00031132  RH  035%=      5-min Rain = 0
KPD2 130312Z 13005KT 00/M13 A3037 RMK A01 T00031132  RH  036%=      5-min Rain = 0
KPD2 130313Z 13005KT 00/M13 A3037 RMK A01 T00031132  RH  036%=      5-min Rain = 0
KPD2 130314Z 13005KT 00/M13 A3037 RMK A01 T00021132  RH  036%=      5-min Rain = 0
KPD2 130315Z 13005KT 00/M13 A3037 RMK A01 T00021131  RH  036%=      5-min Rain = 0
KPD2 130316Z 13005KT 00/M13 A3037 RMK A01 T00021132  RH  036%=      5-min Rain = 0
KPD2 130317Z 13006KT 00/M13 A3037 RMK A01 T00021131  RH  036%=      5-min Rain = 0
KPD2 130318Z 13007KT 00/M13 A3037 RMK A01 T00011132  RH  036%=      5-min Rain = 0
KPD2 130319Z 13007KT 00/M13 A3037 RMK A01 T00011132  RH  036%=      5-min Rain = 0
KPD2 130320Z 13006KT 00/M13 A3037 RMK A01 T00011132  RH  036%=      5-min Rain = 0
KPD2 130321Z 13006KT 00/M13 A3037 RMK A01 T00011132  RH  036%=      5-min Rain = 0
KPD2 130322Z 12007KT 00/13 A3037 RMK A01 T00000-132  RH  036%=      5-min Rain = 0
KPD2 130323Z 12005KT 00/13 A3037 RMK A01 T00000-132  RH  036%=      5-min Rain = 0
KPD2 130324Z 12005KT 00/13 A3037 RMK A01 T00-00-132  RH  036%=      5-min Rain = 0
KPD2 130325Z 13007KT 00/13 A3037 RMK A01 T00-00-132  RH  036%=      5-min Rain = 0
KPD2 130326Z 13006KT 00/13 A3037 RMK A01 T00-00-132  RH  036%=      5-min Rain = 0
KPD2 130327Z 13006KT 00/13 A3037 RMK A01 T00-00-132  RH  036%=      5-min Rain = 0
KPD2 130328Z 13005KT 00/13 A3038 RMK A01 T00-00-132  RH  036%=      5-min Rain = 0
KPD2 130329Z 14004KT 00/13 A3038 RMK A01 T00-00-132  RH  036%=      5-min Rain = 0
KPD2 130330Z 14004KT 00/13 A3038 RMK A01 T00-00-132  RH  036%=      5-min Rain = 0
KPD2 130331Z 14004KT M00/M13 A3038 RMK A01 T10011133  RH  036%=      5-min Rain = 0
KPD2 130332Z 15005KT M00/M13 A3038 RMK A01 T10021133  RH  037%=      5-min Rain = 0
KPD2 130333Z 15005KT M00/M13 A3038 RMK A01 T10021133  RH  037%=      5-min Rain = 0
KPD2 130334Z 15005KT M00/M13 A3038 RMK A01 T10031133  RH  037%=      5-min Rain = 0
KPD2 130335Z 15004KT M00/M13 A3038 RMK A01 T10031133  RH  037%=      5-min Rain = 0
KPD2 130336Z 14004KT M00/M13 A3038 RMK A01 T10041133  RH  037%=      5-min Rain = 0
KPD2 130337Z 14005KT M00/M13 A3038 RMK A01 T10041133  RH  037%=      5-min Rain = 0
KPD2 130338Z 14004KT M01/M13 A3038 RMK A01 T10051133  RH  037%=      5-min Rain = 0
KPD2 130339Z 14004KT M01/M13 A3038 RMK A01 T10051133  RH  037%=      5-min Rain = 0
KPD2 130340Z 14004KT M01/M13 A3038 RMK A01 T10051133  RH  037%=      5-min Rain = 0
KPD2 130341Z 14004KT M01/M13 A3038 RMK A01 T10061133  RH  038%=      5-min Rain = 0
KPD2 130342Z 15004KT M01/M13 A3039 RMK A01 T10061133  RH  038%=      5-min Rain = 0
KPD2 130343Z 14004KT M01/M13 A3039 RMK A01 T10061133  RH  038%=      5-min Rain = 0
KPD2 130344Z 14003KT M01/M13 A3039 RMK A01 T10061133  RH  038%=      5-min Rain = 0
KPD2 130345Z 14003KT M01/M13 A3039 RMK A01 T10071133  RH  038%=      5-min Rain = 0
KPD2 130346Z 13004KT M01/M13 A3039 RMK A01 T10081134  RH  038%=      5-min Rain = 0
KPD2 130347Z 13004KT M01/M13 A3039 RMK A01 T10081134  RH  038%=      5-min Rain = 0
KPD2 130348Z 13004KT M01/M13 A3039 RMK A01 T10091134  RH  038%=      5-min Rain = 0
KPD2 130349Z 13004KT M01/M13 A3039 RMK A01 T10101134  RH  038%=      5-min Rain = 0
KPD2 130350Z 13003KT M01/M13 A3039 RMK A01 T10111134  RH  039%=      5-min Rain = 0
KPD2 130351Z 14004KT M01/M13 A3039 RMK A01 T10111134  RH  039%=      5-min Rain = 0
KPD2 130352Z 13004KT M01/M13 A3039 RMK A01 T10121134  RH  039%=      5-min Rain = 0
KPD2 130353Z 13004KT M01/M13 A3039 RMK A01 T10121134  RH  039%=      5-min Rain = 0
KPD2 130354Z 14004KT M01/M13 A3039 RMK A01 T10121134  RH  039%=      5-min Rain = 0
KPD2 130355Z 14004KT M01/M13 A304 RMK A01 T10121133  RH  039%=      5-min Rain = 0
KPD2 130356Z 14004KT M01/M13 A3039 RMK A01 T10121133  RH  039%=      5-min Rain = 0
KPD2 130357Z 14004KT M01/M13 A304 RMK A01 T10121134  RH  039%=      5-min Rain = 0
KPD2 130358Z 14004KT M01/M13 A304 RMK A01 T10121134  RH  039%=      5-min Rain = 0
KPD2 130359Z 14004KT M01/M13 A304 RMK A01 T10121134  RH  039%=      5-min Rain = 0
KPD2 130400Z 14004KT M01/M13 A304 RMK A01 T10111134  RH  039%=      5-min Rain = 0
KPD2 130401Z 14004KT M01/M13 A304 RMK A01 T10111133  RH  039%=      5-min Rain = 0
KPD2 130402Z 15003KT M01/M13 A304 RMK A01 T10111134  RH  039%=      5-min Rain = 0
KPD2 130403Z 15004KT M01/M13 A304 RMK A01 T10111134  RH  039%=      5-min Rain = 0
KPD2 130404Z 14004KT M01/M13 A304 RMK A01 T10121134  RH  039%=      5-min Rain = 0
KPD2 130405Z 14004KT M01/M13 A304 RMK A01 T10121134  RH  039%=      5-min Rain = 0
KPD2 130406Z 14003KT M01/M13 A304 RMK A01 T10121134  RH  039%=      5-min Rain = 0
KPD2 130407Z 14003KT M01/M14 A304 RMK A01 T10121135  RH  039%=      5-min Rain = 0
KPD2 130408Z 13001KT M01/M14 A3041 RMK A01 T10131136  RH  039%=      5-min Rain = 0
KPD2 130409Z 12003KT M01/M14 A3041 RMK A01 T10141136  RH  039%=      5-min Rain = 0
KPD2 130410Z 11005KT M01/M14 A3041 RMK A01 T10141136  RH  039%=      5-min Rain = 0
KPD2 130411Z 13003KT M01/M14 A3041 RMK A01 T10141136  RH  039%=      5-min Rain = 0
KPD2 130412Z 13003KT M01/M14 A3041 RMK A01 T10141136  RH  039%=      5-min Rain = 0
KPD2 130413Z 11002KT M01/M14 A3041 RMK A01 T10141135  RH  039%=      5-min Rain = 0
KPD2 130414Z 11001KT M02/M14 A3041 RMK A01 T10151136  RH  039%=      5-min Rain = 0
KPD2 130415Z 10003KT M02/M14 A3041 RMK A01 T10151136  RH  039%=      5-min Rain = 0
KPD2 130416Z 10006KT M01/M14 A3041 RMK A01 T10141136  RH  039%=      5-min Rain = 0
KPD2 130417Z 11005KT M01/M14 A3041 RMK A01 T10121135  RH  039%=      5-min Rain = 0
KPD2 130418Z 11005KT M01/M14 A3041 RMK A01 T10101135  RH  038%=      5-min Rain = 0
KPD2 130419Z 11005KT M01/M14 A3041 RMK A01 T10091136  RH  037%=      5-min Rain = 0
KPD2 130420Z 11006KT M01/M14 A3041 RMK A01 T10071136  RH  037%=      5-min Rain = 0
KPD2 130421Z 12006KT M01/M14 A3041 RMK A01 T10061136  RH  037%=      5-min Rain = 0
KPD2 130422Z 13005KT M01/M14 A3041 RMK A01 T10061136  RH  037%=      5-min Rain = 0
KPD2 130423Z 14003KT M01/M14 A3041 RMK A01 T10061136  RH  037%=      5-min Rain = 0
KPD2 130424Z 13003KT M01/M14 A3041 RMK A01 T10071137  RH  037%=      5-min Rain = 0
KPD2 130425Z 14004KT M01/M14 A3041 RMK A01 T10091137  RH  037%=      5-min Rain = 0
KPD2 130426Z 15005KT M01/M14 A3041 RMK A01 T10111137  RH  038%=      5-min Rain = 0
KPD2 130427Z 15005KT M01/M14 A3041 RMK A01 T10131137  RH  038%=      5-min Rain = 0
KPD2 130428Z 15005KT M01/M14 A3041 RMK A01 T10141137  RH  039%=      5-min Rain = 0
KPD2 130429Z 15004KT M02/M14 A3041 RMK A01 T10151137  RH  039%=      5-min Rain = 0
KPD2 130430Z 15004KT M02/M14 A3041 RMK A01 T10161137  RH  039%=      5-min Rain = 0
KPD2 130431Z 14003KT M02/M14 A3041 RMK A01 T10171137  RH  040%=      5-min Rain = 0
KPD2 130432Z 14002KT M02/M14 A3041 RMK A01 T10181137  RH  040%=      5-min Rain = 0
KPD2 130433Z 15004KT M02/M14 A3042 RMK A01 T10181138  RH  040%=      5-min Rain = 0
KPD2 130434Z 15004KT M02/M14 A3042 RMK A01 T10181138  RH  040%=      5-min Rain = 0
KPD2 130435Z 15003KT M02/M14 A3042 RMK A01 T10191138  RH  040%=      5-min Rain = 0
KPD2 130436Z 15002KT M02/M14 A3042 RMK A01 T10191138  RH  040%=      5-min Rain = 0
KPD2 130437Z 15003KT M02/M14 A3042 RMK A01 T10201138  RH  040%=      5-min Rain = 0
KPD2 130438Z 15003KT M02/M14 A3042 RMK A01 T10201137  RH  040%=      5-min Rain = 0
KPD2 130439Z 15003KT M02/M14 A3042 RMK A01 T10201137  RH  040%=      5-min Rain = 0
KPD2 130440Z 15003KT M02/M14 A3042 RMK A01 T10201137  RH  040%=      5-min Rain = 0
KPD2 130441Z 16003KT M02/M14 A3042 RMK A01 T10201137  RH  040%=      5-min Rain = 0
KPD2 130442Z 15003KT M02/M14 A3042 RMK A01 T10201137  RH  040%=      5-min Rain = 0
KPD2 130443Z 16003KT M02/M14 A3042 RMK A01 T10201137  RH  041%=      5-min Rain = 0
KPD2 130444Z 16003KT M02/M14 A3042 RMK A01 T10201137  RH  041%=      5-min Rain = 0
KPD2 130445Z 15003KT M02/M14 A3042 RMK A01 T10211137  RH  041%=      5-min Rain = 0
KPD2 130446Z 14003KT M02/M14 A3042 RMK A01 T10221138  RH  041%=      5-min Rain = 0
KPD2 130447Z 13002KT M02/M14 A3042 RMK A01 T10221138  RH  041%=      5-min Rain = 0
KPD2 130448Z 12003KT M02/M14 A3042 RMK A01 T10231138  RH  041%=      5-min Rain = 0
KPD2 130449Z 12003KT M02/M14 A3042 RMK A01 T10231139  RH  041%=      5-min Rain = 0
KPD2 130450Z 11003KT M02/M14 A3042 RMK A01 T10241138  RH  041%=      5-min Rain = 0
KPD2 130451Z 12003KT M02/M14 A3042 RMK A01 T10241138  RH  041%=      5-min Rain = 0
KPD2 130452Z 13003KT M02/M14 A3042 RMK A01 T10241138  RH  041%=      5-min Rain = 0
KPD2 130453Z 12004KT M02/M14 A3041 RMK A01 T10231138  RH  041%=      5-min Rain = 0
KPD2 130454Z 12003KT M02/M14 A3041 RMK A01 T10221138  RH  041%=      5-min Rain = 0
KPD2 130455Z 11004KT M02/M14 A3042 RMK A01 T10211137  RH  041%=      5-min Rain = 0
KPD2 130456Z 11004KT M02/M14 A3042 RMK A01 T10211138  RH  040%=      5-min Rain = 0
KPD2 130457Z 11004KT M02/M14 A3042 RMK A01 T10211138  RH  040%=      5-min Rain = 0
KPD2 130458Z 11003KT M02/M14 A3042 RMK A01 T10211138  RH  040%=      5-min Rain = 0
KPD2 130459Z 11003KT M02/M14 A3042 RMK A01 T10211138  RH  040%=      5-min Rain = 0
KPD2 130500Z 11003KT M02/M14 A3042 RMK A01 T10211138  RH  040%=      5-min Rain = 0
KPD2 130501Z 11002KT M02/M14 A3042 RMK A01 T10211138  RH  040%=      5-min Rain = 0
KPD2 130502Z 10002KT M02/M14 A3042 RMK A01 T10211138  RH  040%=      5-min Rain = 0
KPD2 130503Z 10002KT M02/M14 A3042 RMK A01 T10211138  RH  040%=      5-min Rain = 0
KPD2 130504Z 11002KT M02/M14 A3042 RMK A01 T10211138  RH  040%=      5-min Rain = 0
KPD2 130505Z 11002KT M02/M14 A3042 RMK A01 T10211138  RH  040%=      5-min Rain = 0
KPD2 130506Z 12001KT M02/M14 A3042 RMK A01 T10221138  RH  040%=      5-min Rain = 0
KPD2 130507Z 14001KT M02/M14 A3042 RMK A01 T10221138  RH  041%=      5-min Rain = 0
KPD2 130508Z 13001KT M02/M14 A3042 RMK A01 T10221138  RH  041%=      5-min Rain = 0
KPD2 130509Z 13001KT M02/M14 A3042 RMK A01 T10221138  RH  041%=      5-min Rain = 0
KPD2 130510Z 13001KT M02/M14 A3042 RMK A01 T10221139  RH  041%=      5-min Rain = 0
KPD2 130511Z 12001KT M02/M14 A3042 RMK A01 T10231139  RH  041%=      5-min Rain = 0
KPD2 130512Z 12001KT M02/M14 A3042 RMK A01 T10231139  RH  041%=      5-min Rain = 0
KPD2 130513Z 12001KT M02/M14 A3042 RMK A01 T10231138  RH  041%=      5-min Rain = 0
KPD2 130514Z 12001KT M02/M14 A3042 RMK A01 T10241139  RH  041%=      5-min Rain = 0
KPD2 130515Z 12001KT M02/M14 A3042 RMK A01 T10241139  RH  041%=      5-min Rain = 0
KPD2 130516Z 12001KT M03/M14 A3042 RMK A01 T10251139  RH  041%=      5-min Rain = 0
KPD2 130517Z 12001KT M03/M14 A3042 RMK A01 T10251139  RH  041%=      5-min Rain = 0
KPD2 130518Z 12001KT M03/M14 A3042 RMK A01 T10251139  RH  041%=      5-min Rain = 0
KPD2 130519Z 13001KT M03/M14 A3042 RMK A01 T10251139  RH  041%=      5-min Rain = 0
KPD2 130520Z 15001KT M03/M14 A3042 RMK A01 T10261139  RH  041%=      5-min Rain = 0
KPD2 130521Z 15000KT M03/M14 A3042 RMK A01 T10261139  RH  041%=      5-min Rain = 0
KPD2 130522Z 20001KT M03/M14 A3042 RMK A01 T10281141  RH  041%=      5-min Rain = 0
KPD2 130523Z 20001KT M03/M14 A3042 RMK A01 T10291142  RH  042%=      5-min Rain = 0
KPD2 130524Z 23001KT M03/M14 A3042 RMK A01 T10301141  RH  042%=      5-min Rain = 0
KPD2 130525Z 24001KT M03/M14 A3042 RMK A01 T10311141  RH  042%=      5-min Rain = 0
KPD2 130526Z 28001KT M03/M14 A3042 RMK A01 T10311140  RH  043%=      5-min Rain = 0
KPD2 130527Z 28001KT M03/M14 A3042 RMK A01 T10321140  RH  043%=      5-min Rain = 0
KPD2 130528Z 28000KT M03/M14 A3042 RMK A01 T10321140  RH  043%=      5-min Rain = 0
KPD2 130529Z 28001KT M03/M14 A3042 RMK A01 T10331140  RH  043%=      5-min Rain = 0
KPD2 130530Z 28001KT M03/M14 A3042 RMK A01 T10331140  RH  044%=      5-min Rain = 0
KPD2 130531Z 28001KT M03/M14 A3042 RMK A01 T10331139  RH  044%=      5-min Rain = 0
KPD2 130532Z 28001KT M03/M14 A3042 RMK A01 T10331138  RH  044%=      5-min Rain = 0
KPD2 130533Z 28000KT M03/M14 A3042 RMK A01 T10331138  RH  044%=      5-min Rain = 0
KPD2 130534Z 29000KT M03/M14 A3042 RMK A01 T10321138  RH  044%=      5-min Rain = 0
KPD2 130535Z 29001KT M03/M14 A3042 RMK A01 T10321138  RH  044%=      5-min Rain = 0
KPD2 130536Z 29000KT M03/M14 A3042 RMK A01 T10311137  RH  044%=      5-min Rain = 0
KPD2 130537Z 29001KT M03/M14 A3042 RMK A01 T10311137  RH  044%=      5-min Rain = 0
KPD2 130538Z 00000KT M03/M14 A3042 RMK A01 T10311138  RH  043%=      5-min Rain = 0
KPD2 130539Z 29000KT M03/M14 A3042 RMK A01 T10301138  RH  043%=      5-min Rain = 0
KPD2 130540Z 32001KT M03/M14 A3042 RMK A01 T10311138  RH  043%=      5-min Rain = 0
KPD2 130541Z 34002KT M03/M14 A3042 RMK A01 T10311139  RH  043%=      5-min Rain = 0
KPD2 130542Z 34002KT M03/M14 A3042 RMK A01 T10321139  RH  043%=      5-min Rain = 0
KPD2 130543Z 34002KT M03/M14 A3043 RMK A01 T10321139  RH  043%=      5-min Rain = 0
KPD2 130544Z 32003KT M03/M14 A3043 RMK A01 T10331140  RH  043%=      5-min Rain = 0
KPD2 130545Z 32003KT M03/M14 A3043 RMK A01 T10341141  RH  043%=      5-min Rain = 0
KPD2 130546Z 33002KT M04/M14 A3043 RMK A01 T10351142  RH  043%=      5-min Rain = 0
KPD2 130547Z 34002KT M04/M14 A3043 RMK A01 T10351141  RH  044%=      5-min Rain = 0
KPD2 130548Z 35002KT M04/M14 A3043 RMK A01 T10351140  RH  044%=      5-min Rain = 0
KPD2 130549Z 00002KT M04/M14 A3043 RMK A01 T10351140  RH  044%=      5-min Rain = 0
KPD2 130550Z 01002KT M03/M14 A3043 RMK A01 T10341138  RH  044%=      5-min Rain = 0
KPD2 130551Z 36002KT M03/M14 A3043 RMK A01 T10331138  RH  044%=      5-min Rain = 0
KPD2 130552Z 35002KT M03/M14 A3043 RMK A01 T10331138  RH  044%=      5-min Rain = 0
KPD2 130553Z 34002KT M03/M14 A3043 RMK A01 T10321139  RH  044%=      5-min Rain = 0
KPD2 130554Z 32002KT M03/M14 A3043 RMK A01 T10341142  RH  043%=      5-min Rain = 0
KPD2 130555Z 32002KT M03/M14 A3043 RMK A01 T10341142  RH  043%=      5-min Rain = 0
KPD2 130556Z 31002KT M04/M14 A3043 RMK A01 T10351141  RH  044%=      5-min Rain = 0
KPD2 130557Z 31001KT M03/M14 A3043 RMK A01 T10341140  RH  044%=      5-min Rain = 0
KPD2 130558Z 31002KT M03/M14 A3043 RMK A01 T10341141  RH  043%=      5-min Rain = 0
KPD2 130559Z 31002KT M03/M14 A3043 RMK A01 T10341141  RH  043%=      5-min Rain = 0
KPD2 130600Z 29003KT M04/M14 A3043 RMK A01 T10351142  RH  044%=      5-min Rain = 0

Page generated in 0.2162 seconds.